<?xml version="1.0" encoding="utf-8"?>
<gpx xmlns:xsi="http://www.w3.org/2001/XMLSchema-instance" xmlns:xsd="http://www.w3.org/2001/XMLSchema" version="1.1" creator="Shapelink.com" xmlns="http://www.topografix.com/GPX/1/1" xmlns:gpxtpx="http://www.garmin.com/xmlschemas/TrackPointExtension/v1">
  <metadata>
    <name>Löpning 12.51 km, 2012-04-02</name>
    <desc></desc>
    <author><name>Dennis Rehn</name></author> 
    <time>2012-04-02T18:29:34Z</time>
  </metadata>
  <trk>
    <name>Löpning 12.51 km, 2012-04-02</name>
    <trkseg>
      <trkpt lat="59.9950769312" lon="23.4236742681">
        <ele>7.2</ele>
        <time>2012-04-02T18:29:34Z</time>
      </trkpt>
      <trkpt lat="59.9950141507" lon="23.4234480406">
        <ele>7.2</ele>
        <time>2012-04-02T18:29:38Z</time>
      </trkpt>
      <trkpt lat="59.9949223689" lon="23.4231173746">
        <ele>7.2</ele>
        <time>2012-04-02T18:29:44Z</time>
      </trkpt>
      <trkpt lat="59.9948894281" lon="23.4227174742">
        <ele>7.2</ele>
        <time>2012-04-02T18:29:51Z</time>
      </trkpt>
      <trkpt lat="59.9948999054" lon="23.4224153067">
        <ele>7.2</ele>
        <time>2012-04-02T18:29:56Z</time>
      </trkpt>
      <trkpt lat="59.9949271466" lon="23.4220675417">
        <ele>7.2</ele>
        <time>2012-04-02T18:30:02Z</time>
      </trkpt>
      <trkpt lat="59.9949408091" lon="23.421775181">
        <ele>7.2</ele>
        <time>2012-04-02T18:30:07Z</time>
      </trkpt>
      <trkpt lat="59.9949481014" lon="23.4214305173">
        <ele>7.2</ele>
        <time>2012-04-02T18:30:13Z</time>
      </trkpt>
      <trkpt lat="59.9949231233" lon="23.4212048765">
        <ele>7.2</ele>
        <time>2012-04-02T18:30:17Z</time>
      </trkpt>
      <trkpt lat="59.9948952116" lon="23.4209920601">
        <ele>7.2</ele>
        <time>2012-04-02T18:30:21Z</time>
      </trkpt>
      <trkpt lat="59.9948345266" lon="23.4206537666">
        <ele>7.2</ele>
        <time>2012-04-02T18:30:27Z</time>
      </trkpt>
      <trkpt lat="59.9947841514" lon="23.4203738111">
        <ele>7.2</ele>
        <time>2012-04-02T18:30:32Z</time>
      </trkpt>
      <trkpt lat="59.9947150007" lon="23.4200769242">
        <ele>7.2</ele>
        <time>2012-04-02T18:30:38Z</time>
      </trkpt>
      <trkpt lat="59.9946309303" lon="23.4197282372">
        <ele>7.6</ele>
        <time>2012-04-02T18:30:44Z</time>
      </trkpt>
      <trkpt lat="59.9945565828" lon="23.4193983256">
        <ele>8.4</ele>
        <time>2012-04-02T18:30:50Z</time>
      </trkpt>
      <trkpt lat="59.994495814" lon="23.4191174481">
        <ele>8.6</ele>
        <time>2012-04-02T18:30:55Z</time>
      </trkpt>
      <trkpt lat="59.9944220533" lon="23.4187798252">
        <ele>9</ele>
        <time>2012-04-02T18:31:01Z</time>
      </trkpt>
      <trkpt lat="59.9943494661" lon="23.4184926613">
        <ele>9</ele>
        <time>2012-04-02T18:31:07Z</time>
      </trkpt>
      <trkpt lat="59.994293475" lon="23.4182357561">
        <ele>9.8</ele>
        <time>2012-04-02T18:31:12Z</time>
      </trkpt>
      <trkpt lat="59.9942090692" lon="23.4179636796">
        <ele>10.6</ele>
        <time>2012-04-02T18:31:18Z</time>
      </trkpt>
      <trkpt lat="59.9940862744" lon="23.4177152401">
        <ele>11.2</ele>
        <time>2012-04-02T18:31:24Z</time>
      </trkpt>
      <trkpt lat="59.9939550977" lon="23.4175748433">
        <ele>12.2</ele>
        <time>2012-04-02T18:31:29Z</time>
      </trkpt>
      <trkpt lat="59.9937870406" lon="23.4174356199">
        <ele>12.8</ele>
        <time>2012-04-02T18:31:36Z</time>
      </trkpt>
      <trkpt lat="59.9936757289" lon="23.4172962289">
        <ele>13.8</ele>
        <time>2012-04-02T18:31:41Z</time>
      </trkpt>
      <trkpt lat="59.9935981125" lon="23.4171449356">
        <ele>14.4</ele>
        <time>2012-04-02T18:31:45Z</time>
      </trkpt>
      <trkpt lat="59.9935132039" lon="23.4169282635">
        <ele>15</ele>
        <time>2012-04-02T18:31:50Z</time>
      </trkpt>
      <trkpt lat="59.9934414548" lon="23.4166850208">
        <ele>16.2</ele>
        <time>2012-04-02T18:31:55Z</time>
      </trkpt>
      <trkpt lat="59.9933269581" lon="23.4163789976">
        <ele>16.8</ele>
        <time>2012-04-02T18:32:01Z</time>
      </trkpt>
      <trkpt lat="59.993230231" lon="23.4160927557">
        <ele>17.2</ele>
        <time>2012-04-02T18:32:06Z</time>
      </trkpt>
      <trkpt lat="59.9931164886" lon="23.4157814519">
        <ele>17.6</ele>
        <time>2012-04-02T18:32:12Z</time>
      </trkpt>
      <trkpt lat="59.9930147323" lon="23.4154812123">
        <ele>18.6</ele>
        <time>2012-04-02T18:32:18Z</time>
      </trkpt>
      <trkpt lat="59.992932003" lon="23.4151518874">
        <ele>19</ele>
        <time>2012-04-02T18:32:24Z</time>
      </trkpt>
      <trkpt lat="59.9928675461" lon="23.4148280108">
        <ele>19.4</ele>
        <time>2012-04-02T18:32:30Z</time>
      </trkpt>
      <trkpt lat="59.9928022511" lon="23.4144763063">
        <ele>19.6</ele>
        <time>2012-04-02T18:32:36Z</time>
      </trkpt>
      <trkpt lat="59.9927808773" lon="23.4141771563">
        <ele>19.6</ele>
        <time>2012-04-02T18:32:41Z</time>
      </trkpt>
      <trkpt lat="59.9927948751" lon="23.413949923">
        <ele>19.6</ele>
        <time>2012-04-02T18:32:45Z</time>
      </trkpt>
      <trkpt lat="59.9928128123" lon="23.4135916806">
        <ele>19.6</ele>
        <time>2012-04-02T18:32:51Z</time>
      </trkpt>
      <trkpt lat="59.9928326774" lon="23.4132973082">
        <ele>19.6</ele>
        <time>2012-04-02T18:32:56Z</time>
      </trkpt>
      <trkpt lat="59.9928543866" lon="23.4129392335">
        <ele>19.6</ele>
        <time>2012-04-02T18:33:02Z</time>
      </trkpt>
      <trkpt lat="59.9928646963" lon="23.4127045403">
        <ele>19.6</ele>
        <time>2012-04-02T18:33:06Z</time>
      </trkpt>
      <trkpt lat="59.9928693902" lon="23.4125881995">
        <ele>19.6</ele>
        <time>2012-04-02T18:33:08Z</time>
      </trkpt>
      <trkpt lat="59.9928862378" lon="23.4122450445">
        <ele>19.6</ele>
        <time>2012-04-02T18:33:14Z</time>
      </trkpt>
      <trkpt lat="59.9928863216" lon="23.4121926576">
        <ele>19.6</ele>
        <time>2012-04-02T18:33:15Z</time>
      </trkpt>
      <trkpt lat="59.9928675461" lon="23.4117362632">
        <ele>19.6</ele>
        <time>2012-04-02T18:33:22Z</time>
      </trkpt>
      <trkpt lat="59.9928576555" lon="23.41144692">
        <ele>19.6</ele>
        <time>2012-04-02T18:33:27Z</time>
      </trkpt>
      <trkpt lat="59.9927853197" lon="23.4110731711">
        <ele>19.6</ele>
        <time>2012-04-02T18:33:34Z</time>
      </trkpt>
      <trkpt lat="59.9927197732" lon="23.4107502165">
        <ele>19.6</ele>
        <time>2012-04-02T18:33:40Z</time>
      </trkpt>
      <trkpt lat="59.9926724993" lon="23.4104662377">
        <ele>19.6</ele>
        <time>2012-04-02T18:33:45Z</time>
      </trkpt>
      <trkpt lat="59.9926018399" lon="23.410205393">
        <ele>19.6</ele>
        <time>2012-04-02T18:33:50Z</time>
      </trkpt>
      <trkpt lat="59.9924922047" lon="23.4100107652">
        <ele>19.6</ele>
        <time>2012-04-02T18:33:55Z</time>
      </trkpt>
      <trkpt lat="59.9923834914" lon="23.4098290457">
        <ele>19.6</ele>
        <time>2012-04-02T18:34:00Z</time>
      </trkpt>
      <trkpt lat="59.992199844" lon="23.40965663">
        <ele>19.6</ele>
        <time>2012-04-02T18:34:07Z</time>
      </trkpt>
      <trkpt lat="59.9920324574" lon="23.4095772534">
        <ele>19.6</ele>
        <time>2012-04-02T18:34:13Z</time>
      </trkpt>
      <trkpt lat="59.9918562699" lon="23.4095364335">
        <ele>19.6</ele>
        <time>2012-04-02T18:34:19Z</time>
      </trkpt>
      <trkpt lat="59.9916515839" lon="23.4094822865">
        <ele>19.6</ele>
        <time>2012-04-02T18:34:26Z</time>
      </trkpt>
      <trkpt lat="59.9914490772" lon="23.4094611641">
        <ele>19.6</ele>
        <time>2012-04-02T18:34:33Z</time>
      </trkpt>
      <trkpt lat="59.9912983706" lon="23.409510282">
        <ele>19.6</ele>
        <time>2012-04-02T18:34:38Z</time>
      </trkpt>
      <trkpt lat="59.9911319899" lon="23.4096637546">
        <ele>19.4</ele>
        <time>2012-04-02T18:34:44Z</time>
      </trkpt>
      <trkpt lat="59.9909736558" lon="23.4098329013">
        <ele>18.6</ele>
        <time>2012-04-02T18:34:50Z</time>
      </trkpt>
      <trkpt lat="59.9908098735" lon="23.4099814286">
        <ele>18</ele>
        <time>2012-04-02T18:34:56Z</time>
      </trkpt>
      <trkpt lat="59.9906484381" lon="23.4101079953">
        <ele>17</ele>
        <time>2012-04-02T18:35:02Z</time>
      </trkpt>
      <trkpt lat="59.9904722506" lon="23.4101500724">
        <ele>16.2</ele>
        <time>2012-04-02T18:35:08Z</time>
      </trkpt>
      <trkpt lat="59.9903205382" lon="23.4100601346">
        <ele>16</ele>
        <time>2012-04-02T18:35:13Z</time>
      </trkpt>
      <trkpt lat="59.9902399881" lon="23.4098908203">
        <ele>15.8</ele>
        <time>2012-04-02T18:35:17Z</time>
      </trkpt>
      <trkpt lat="59.9901596057" lon="23.4096031534">
        <ele>15.6</ele>
        <time>2012-04-02T18:35:23Z</time>
      </trkpt>
      <trkpt lat="59.9901039499" lon="23.4093981322">
        <ele>15.4</ele>
        <time>2012-04-02T18:35:27Z</time>
      </trkpt>
      <trkpt lat="59.9900182869" lon="23.4090954618">
        <ele>14.4</ele>
        <time>2012-04-02T18:35:33Z</time>
      </trkpt>
      <trkpt lat="59.9899165306" lon="23.408779548">
        <ele>14</ele>
        <time>2012-04-02T18:35:40Z</time>
      </trkpt>
      <trkpt lat="59.9897830908" lon="23.4084801465">
        <ele>13.6</ele>
        <time>2012-04-02T18:35:47Z</time>
      </trkpt>
      <trkpt lat="59.9896226612" lon="23.4082313717">
        <ele>13.6</ele>
        <time>2012-04-02T18:35:54Z</time>
      </trkpt>
      <trkpt lat="59.9894976032" lon="23.4080790726">
        <ele>13.4</ele>
        <time>2012-04-02T18:35:59Z</time>
      </trkpt>
      <trkpt lat="59.9893636605" lon="23.4079683477">
        <ele>13.4</ele>
        <time>2012-04-02T18:36:04Z</time>
      </trkpt>
      <trkpt lat="59.9892447213" lon="23.407859383">
        <ele>14.2</ele>
        <time>2012-04-02T18:36:09Z</time>
      </trkpt>
      <trkpt lat="59.9890805199" lon="23.4076740592">
        <ele>14.8</ele>
        <time>2012-04-02T18:36:15Z</time>
      </trkpt>
      <trkpt lat="59.9889314059" lon="23.4074609074">
        <ele>16</ele>
        <time>2012-04-02T18:36:21Z</time>
      </trkpt>
      <trkpt lat="59.9887903385" lon="23.4071902559">
        <ele>17.2</ele>
        <time>2012-04-02T18:36:28Z</time>
      </trkpt>
      <trkpt lat="59.988706771" lon="23.407029072">
        <ele>18</ele>
        <time>2012-04-02T18:36:32Z</time>
      </trkpt>
      <trkpt lat="59.9885602554" lon="23.406823883">
        <ele>19.4</ele>
        <time>2012-04-02T18:36:38Z</time>
      </trkpt>
      <trkpt lat="59.9884039329" lon="23.4066156767">
        <ele>20.6</ele>
        <time>2012-04-02T18:36:44Z</time>
      </trkpt>
      <trkpt lat="59.9882388933" lon="23.406450637">
        <ele>21.8</ele>
        <time>2012-04-02T18:36:50Z</time>
      </trkpt>
      <trkpt lat="59.9880733508" lon="23.4063709252">
        <ele>22.8</ele>
        <time>2012-04-02T18:36:56Z</time>
      </trkpt>
      <trkpt lat="59.9879736062" lon="23.4063748647">
        <ele>23.2</ele>
        <time>2012-04-02T18:37:00Z</time>
      </trkpt>
      <trkpt lat="59.9878745321" lon="23.4064535707">
        <ele>24</ele>
        <time>2012-04-02T18:37:05Z</time>
      </trkpt>
      <trkpt lat="59.9877595325" lon="23.4065763655">
        <ele>25</ele>
        <time>2012-04-02T18:37:11Z</time>
      </trkpt>
      <trkpt lat="59.9876572733" lon="23.4067277427">
        <ele>25.8</ele>
        <time>2012-04-02T18:37:16Z</time>
      </trkpt>
      <trkpt lat="59.9875404296" lon="23.4069002422">
        <ele>26.6</ele>
        <time>2012-04-02T18:37:21Z</time>
      </trkpt>
      <trkpt lat="59.9873990269" lon="23.4070847278">
        <ele>27.2</ele>
        <time>2012-04-02T18:37:27Z</time>
      </trkpt>
      <trkpt lat="59.9872484042" lon="23.4072494321">
        <ele>27.6</ele>
        <time>2012-04-02T18:37:33Z</time>
      </trkpt>
      <trkpt lat="59.9871154673" lon="23.4073497635">
        <ele>27.8</ele>
        <time>2012-04-02T18:37:38Z</time>
      </trkpt>
      <trkpt lat="59.98697155" lon="23.4073963668">
        <ele>28.2</ele>
        <time>2012-04-02T18:37:43Z</time>
      </trkpt>
      <trkpt lat="59.9867985476" lon="23.4074107837">
        <ele>29</ele>
        <time>2012-04-02T18:37:49Z</time>
      </trkpt>
      <trkpt lat="59.9866253776" lon="23.4074306488">
        <ele>29.4</ele>
        <time>2012-04-02T18:37:55Z</time>
      </trkpt>
      <trkpt lat="59.9864451667" lon="23.4074239433">
        <ele>29.6</ele>
        <time>2012-04-02T18:38:01Z</time>
      </trkpt>
      <trkpt lat="59.986264453" lon="23.4074154775">
        <ele>29.8</ele>
        <time>2012-04-02T18:38:07Z</time>
      </trkpt>
      <trkpt lat="59.9861168477" lon="23.4074011445">
        <ele>29.8</ele>
        <time>2012-04-02T18:38:12Z</time>
      </trkpt>
      <trkpt lat="59.9859363016" lon="23.4073582292">
        <ele>30</ele>
        <time>2012-04-02T18:38:18Z</time>
      </trkpt>
      <trkpt lat="59.985670763" lon="23.4071887472">
        <ele>30</ele>
        <time>2012-04-02T18:38:27Z</time>
      </trkpt>
      <trkpt lat="59.9854149474" lon="23.4070617614">
        <ele>30</ele>
        <time>2012-04-02T18:38:36Z</time>
      </trkpt>
      <trkpt lat="59.9852512489" lon="23.4069921916">
        <ele>30.6</ele>
        <time>2012-04-02T18:38:42Z</time>
      </trkpt>
      <trkpt lat="59.9851014643" lon="23.4069788644">
        <ele>31.2</ele>
        <time>2012-04-02T18:38:47Z</time>
      </trkpt>
      <trkpt lat="59.9849959362" lon="23.4069698119">
        <ele>31.4</ele>
        <time>2012-04-02T18:38:51Z</time>
      </trkpt>
      <trkpt lat="59.9849264503" lon="23.4072048404">
        <ele>31.6</ele>
        <time>2012-04-02T18:38:56Z</time>
      </trkpt>
      <trkpt lat="59.9849184875" lon="23.4072664474">
        <ele>31.8</ele>
        <time>2012-04-02T18:38:57Z</time>
      </trkpt>
      <trkpt lat="59.9848834511" lon="23.4075552876">
        <ele>31.8</ele>
        <time>2012-04-02T18:39:02Z</time>
      </trkpt>
      <trkpt lat="59.984846906" lon="23.4078347402">
        <ele>32</ele>
        <time>2012-04-02T18:39:07Z</time>
      </trkpt>
      <trkpt lat="59.9848006379" lon="23.4081897975">
        <ele>32</ele>
        <time>2012-04-02T18:39:13Z</time>
      </trkpt>
      <trkpt lat="59.9847545375" lon="23.4085638817">
        <ele>31.2</ele>
        <time>2012-04-02T18:39:19Z</time>
      </trkpt>
      <trkpt lat="59.9847118736" lon="23.4089336073">
        <ele>30.6</ele>
        <time>2012-04-02T18:39:25Z</time>
      </trkpt>
      <trkpt lat="59.9846601573" lon="23.4093606651">
        <ele>29.6</ele>
        <time>2012-04-02T18:39:32Z</time>
      </trkpt>
      <trkpt lat="59.9846123805" lon="23.4097447237">
        <ele>28.4</ele>
        <time>2012-04-02T18:39:38Z</time>
      </trkpt>
      <trkpt lat="59.9845861451" lon="23.4098661775">
        <ele>28</ele>
        <time>2012-04-02T18:39:40Z</time>
      </trkpt>
      <trkpt lat="59.9845288967" lon="23.4100965121">
        <ele>27.2</ele>
        <time>2012-04-02T18:39:44Z</time>
      </trkpt>
      <trkpt lat="59.9844521185" lon="23.4104570176">
        <ele>26.6</ele>
        <time>2012-04-02T18:39:51Z</time>
      </trkpt>
      <trkpt lat="59.9844889151" lon="23.4107594366">
        <ele>26.2</ele>
        <time>2012-04-02T18:39:56Z</time>
      </trkpt>
      <trkpt lat="59.9845236161" lon="23.4110704889">
        <ele>25.4</ele>
        <time>2012-04-02T18:40:01Z</time>
      </trkpt>
      <trkpt lat="59.9845543777" lon="23.4114361073">
        <ele>24.6</ele>
        <time>2012-04-02T18:40:07Z</time>
      </trkpt>
      <trkpt lat="59.9845751648" lon="23.4116774222">
        <ele>24.2</ele>
        <time>2012-04-02T18:40:11Z</time>
      </trkpt>
      <trkpt lat="59.9846027413" lon="23.4120410291">
        <ele>23</ele>
        <time>2012-04-02T18:40:17Z</time>
      </trkpt>
      <trkpt lat="59.9846239475" lon="23.4124042168">
        <ele>22.4</ele>
        <time>2012-04-02T18:40:23Z</time>
      </trkpt>
      <trkpt lat="59.9846428068" lon="23.4127669854">
        <ele>22</ele>
        <time>2012-04-02T18:40:29Z</time>
      </trkpt>
      <trkpt lat="59.9846656055" lon="23.4131443386">
        <ele>22</ele>
        <time>2012-04-02T18:40:35Z</time>
      </trkpt>
      <trkpt lat="59.9846882367" lon="23.4135128069">
        <ele>21.8</ele>
        <time>2012-04-02T18:40:41Z</time>
      </trkpt>
      <trkpt lat="59.9847121251" lon="23.4138923393">
        <ele>21.8</ele>
        <time>2012-04-02T18:40:47Z</time>
      </trkpt>
      <trkpt lat="59.9847245303" lon="23.4142467261">
        <ele>21.8</ele>
        <time>2012-04-02T18:40:53Z</time>
      </trkpt>
      <trkpt lat="59.9847330798" lon="23.4146316229">
        <ele>21.8</ele>
        <time>2012-04-02T18:40:59Z</time>
      </trkpt>
      <trkpt lat="59.9847564653" lon="23.4149968223">
        <ele>21.8</ele>
        <time>2012-04-02T18:41:05Z</time>
      </trkpt>
      <trkpt lat="59.9848137975" lon="23.4153440844">
        <ele>21.8</ele>
        <time>2012-04-02T18:41:11Z</time>
      </trkpt>
      <trkpt lat="59.9848393623" lon="23.4155713177">
        <ele>21.8</ele>
        <time>2012-04-02T18:41:15Z</time>
      </trkpt>
      <trkpt lat="59.9848534439" lon="23.4158168236">
        <ele>21.8</ele>
        <time>2012-04-02T18:41:19Z</time>
      </trkpt>
      <trkpt lat="59.9848629155" lon="23.4161900696">
        <ele>21.8</ele>
        <time>2012-04-02T18:41:25Z</time>
      </trkpt>
      <trkpt lat="59.9848681122" lon="23.4166107571">
        <ele>21.8</ele>
        <time>2012-04-02T18:41:32Z</time>
      </trkpt>
      <trkpt lat="59.9848681122" lon="23.4169788902">
        <ele>21.8</ele>
        <time>2012-04-02T18:41:38Z</time>
      </trkpt>
      <trkpt lat="59.9848601494" lon="23.4173590093">
        <ele>21.8</ele>
        <time>2012-04-02T18:41:44Z</time>
      </trkpt>
      <trkpt lat="59.9848583054" lon="23.4177277291">
        <ele>21.8</ele>
        <time>2012-04-02T18:41:50Z</time>
      </trkpt>
      <trkpt lat="59.9848506779" lon="23.4181008913">
        <ele>21.8</ele>
        <time>2012-04-02T18:41:56Z</time>
      </trkpt>
      <trkpt lat="59.9848431342" lon="23.4184601395">
        <ele>21.8</ele>
        <time>2012-04-02T18:42:02Z</time>
      </trkpt>
      <trkpt lat="59.9848306451" lon="23.4188142748">
        <ele>21.8</ele>
        <time>2012-04-02T18:42:08Z</time>
      </trkpt>
      <trkpt lat="59.9848300584" lon="23.4191591062">
        <ele>21.8</ele>
        <time>2012-04-02T18:42:14Z</time>
      </trkpt>
      <trkpt lat="59.9848484986" lon="23.419502345">
        <ele>22</ele>
        <time>2012-04-02T18:42:20Z</time>
      </trkpt>
      <trkpt lat="59.9848262027" lon="23.4199088671">
        <ele>22.8</ele>
        <time>2012-04-02T18:42:27Z</time>
      </trkpt>
      <trkpt lat="59.98478949" lon="23.4202261221">
        <ele>23.2</ele>
        <time>2012-04-02T18:42:33Z</time>
      </trkpt>
      <trkpt lat="59.9847525258" lon="23.4205767369">
        <ele>23.6</ele>
        <time>2012-04-02T18:42:39Z</time>
      </trkpt>
      <trkpt lat="59.9846770049" lon="23.4209464625">
        <ele>23.6</ele>
        <time>2012-04-02T18:42:46Z</time>
      </trkpt>
      <trkpt lat="59.9846283899" lon="23.421175037">
        <ele>23.6</ele>
        <time>2012-04-02T18:42:51Z</time>
      </trkpt>
      <trkpt lat="59.9845659447" lon="23.4215160965">
        <ele>23.8</ele>
        <time>2012-04-02T18:42:57Z</time>
      </trkpt>
      <trkpt lat="59.9844967941" lon="23.4219162484">
        <ele>23.8</ele>
        <time>2012-04-02T18:43:04Z</time>
      </trkpt>
      <trkpt lat="59.9844318343" lon="23.422251692">
        <ele>23.8</ele>
        <time>2012-04-02T18:43:10Z</time>
      </trkpt>
      <trkpt lat="59.9843739992" lon="23.4225686116">
        <ele>23.8</ele>
        <time>2012-04-02T18:43:16Z</time>
      </trkpt>
      <trkpt lat="59.9843075308" lon="23.4229293686">
        <ele>23.8</ele>
        <time>2012-04-02T18:43:23Z</time>
      </trkpt>
      <trkpt lat="59.9842417329" lon="23.4232695061">
        <ele>23.8</ele>
        <time>2012-04-02T18:43:29Z</time>
      </trkpt>
      <trkpt lat="59.9841770246" lon="23.4235896947">
        <ele>23.8</ele>
        <time>2012-04-02T18:43:35Z</time>
      </trkpt>
      <trkpt lat="59.9841274876" lon="23.42385121">
        <ele>23.8</ele>
        <time>2012-04-02T18:43:40Z</time>
      </trkpt>
      <trkpt lat="59.9840787049" lon="23.4241914313">
        <ele>23.8</ele>
        <time>2012-04-02T18:43:46Z</time>
      </trkpt>
      <trkpt lat="59.9840521343" lon="23.4245806867">
        <ele>23.8</ele>
        <time>2012-04-02T18:43:52Z</time>
      </trkpt>
      <trkpt lat="59.9840407349" lon="23.4249915675">
        <ele>23.8</ele>
        <time>2012-04-02T18:43:58Z</time>
      </trkpt>
      <trkpt lat="59.9840205345" lon="23.4252136878">
        <ele>23.8</ele>
        <time>2012-04-02T18:44:02Z</time>
      </trkpt>
      <trkpt lat="59.9839776192" lon="23.4253730277">
        <ele>23.8</ele>
        <time>2012-04-02T18:44:05Z</time>
      </trkpt>
      <trkpt lat="59.9838585962" lon="23.4254393286">
        <ele>23.8</ele>
        <time>2012-04-02T18:44:09Z</time>
      </trkpt>
      <trkpt lat="59.9837080573" lon="23.4254233191">
        <ele>23.8</ele>
        <time>2012-04-02T18:44:14Z</time>
      </trkpt>
      <trkpt lat="59.9836811514" lon="23.4254266719">
        <ele>23.4</ele>
        <time>2012-04-02T18:44:16Z</time>
      </trkpt>
      <trkpt lat="59.9835545009" lon="23.425473862">
        <ele>22.8</ele>
        <time>2012-04-02T18:44:20Z</time>
      </trkpt>
      <trkpt lat="59.9834188817" lon="23.4255591897">
        <ele>22.6</ele>
        <time>2012-04-02T18:44:24Z</time>
      </trkpt>
      <trkpt lat="59.9833648185" lon="23.4258174361">
        <ele>22.2</ele>
        <time>2012-04-02T18:44:29Z</time>
      </trkpt>
      <trkpt lat="59.9834339691" lon="23.4262688014">
        <ele>22</ele>
        <time>2012-04-02T18:44:37Z</time>
      </trkpt>
      <trkpt lat="59.98342433" lon="23.4263258821">
        <ele>22</ele>
        <time>2012-04-02T18:44:38Z</time>
      </trkpt>
      <trkpt lat="59.9833563528" lon="23.4266942666">
        <ele>21.8</ele>
        <time>2012-04-02T18:44:44Z</time>
      </trkpt>
      <trkpt lat="59.983295584" lon="23.4270567">
        <ele>21.8</ele>
        <time>2012-04-02T18:44:50Z</time>
      </trkpt>
      <trkpt lat="59.9832297861" lon="23.4274115896">
        <ele>21.8</ele>
        <time>2012-04-02T18:44:56Z</time>
      </trkpt>
      <trkpt lat="59.9831685982" lon="23.4277671498">
        <ele>21.8</ele>
        <time>2012-04-02T18:45:02Z</time>
      </trkpt>
      <trkpt lat="59.9831040576" lon="23.4281289965">
        <ele>21.8</ele>
        <time>2012-04-02T18:45:08Z</time>
      </trkpt>
      <trkpt lat="59.9830582924" lon="23.4284236203">
        <ele>21.8</ele>
        <time>2012-04-02T18:45:13Z</time>
      </trkpt>
      <trkpt lat="59.9830008764" lon="23.4287260392">
        <ele>21.8</ele>
        <time>2012-04-02T18:45:18Z</time>
      </trkpt>
      <trkpt lat="59.9828870502" lon="23.42940732">
        <ele>21.8</ele>
        <time>2012-04-02T18:45:29Z</time>
      </trkpt>
      <trkpt lat="59.9828322325" lon="23.4297614553">
        <ele>21.8</ele>
        <time>2012-04-02T18:45:35Z</time>
      </trkpt>
      <trkpt lat="59.9827546162" lon="23.4301760241">
        <ele>21.8</ele>
        <time>2012-04-02T18:45:42Z</time>
      </trkpt>
      <trkpt lat="59.9826103637" lon="23.4304493578">
        <ele>21.8</ele>
        <time>2012-04-02T18:45:48Z</time>
      </trkpt>
      <trkpt lat="59.9824340923" lon="23.4306049259">
        <ele>22.8</ele>
        <time>2012-04-02T18:45:54Z</time>
      </trkpt>
      <trkpt lat="59.9822838048" lon="23.4306547982">
        <ele>23.2</ele>
        <time>2012-04-02T18:45:59Z</time>
      </trkpt>
      <trkpt lat="59.9821240458" lon="23.4306335082">
        <ele>23.4</ele>
        <time>2012-04-02T18:46:04Z</time>
      </trkpt>
      <trkpt lat="59.9819318488" lon="23.4305962926">
        <ele>23.6</ele>
        <time>2012-04-02T18:46:10Z</time>
      </trkpt>
      <trkpt lat="59.9817462736" lon="23.4306880744">
        <ele>23.6</ele>
        <time>2012-04-02T18:46:16Z</time>
      </trkpt>
      <trkpt lat="59.9816467804" lon="23.430985548">
        <ele>23.8</ele>
        <time>2012-04-02T18:46:22Z</time>
      </trkpt>
      <trkpt lat="59.9815533222" lon="23.4313357438">
        <ele>23.8</ele>
        <time>2012-04-02T18:46:28Z</time>
      </trkpt>
      <trkpt lat="59.9814664019" lon="23.4316809942">
        <ele>23.8</ele>
        <time>2012-04-02T18:46:34Z</time>
      </trkpt>
      <trkpt lat="59.9813858519" lon="23.4319718462">
        <ele>23.8</ele>
        <time>2012-04-02T18:46:39Z</time>
      </trkpt>
      <trkpt lat="59.9812975067" lon="23.4323155879">
        <ele>23.8</ele>
        <time>2012-04-02T18:46:45Z</time>
      </trkpt>
      <trkpt lat="59.9812126818" lon="23.4326459186">
        <ele>23.8</ele>
        <time>2012-04-02T18:46:51Z</time>
      </trkpt>
      <trkpt lat="59.9811158709" lon="23.4329608265">
        <ele>23.2</ele>
        <time>2012-04-02T18:46:57Z</time>
      </trkpt>
      <trkpt lat="59.9810235023" lon="23.4332807637">
        <ele>22.4</ele>
        <time>2012-04-02T18:47:03Z</time>
      </trkpt>
      <trkpt lat="59.9809281163" lon="23.4336181351">
        <ele>22.2</ele>
        <time>2012-04-02T18:47:09Z</time>
      </trkpt>
      <trkpt lat="59.9808515896" lon="23.4339107473">
        <ele>22</ele>
        <time>2012-04-02T18:47:14Z</time>
      </trkpt>
      <trkpt lat="59.9807727159" lon="23.4342480349">
        <ele>22</ele>
        <time>2012-04-02T18:47:20Z</time>
      </trkpt>
      <trkpt lat="59.980651346" lon="23.4347483505">
        <ele>21.8</ele>
        <time>2012-04-02T18:47:29Z</time>
      </trkpt>
      <trkpt lat="59.9805566305" lon="23.4351060062">
        <ele>21.8</ele>
        <time>2012-04-02T18:47:35Z</time>
      </trkpt>
      <trkpt lat="59.9804773377" lon="23.4353941759">
        <ele>21.8</ele>
        <time>2012-04-02T18:47:40Z</time>
      </trkpt>
      <trkpt lat="59.9802484281" lon="23.4356114348">
        <ele>21.8</ele>
        <time>2012-04-02T18:47:49Z</time>
      </trkpt>
      <trkpt lat="59.9800563149" lon="23.4354595548">
        <ele>21.8</ele>
        <time>2012-04-02T18:47:55Z</time>
      </trkpt>
      <trkpt lat="59.979896053" lon="23.4354416175">
        <ele>21.8</ele>
        <time>2012-04-02T18:48:00Z</time>
      </trkpt>
      <trkpt lat="59.9797239726" lon="23.435583104">
        <ele>21.8</ele>
        <time>2012-04-02T18:48:06Z</time>
      </trkpt>
      <trkpt lat="59.9795550773" lon="23.4357603811">
        <ele>21.8</ele>
        <time>2012-04-02T18:48:12Z</time>
      </trkpt>
      <trkpt lat="59.9794142614" lon="23.435844284">
        <ele>21.8</ele>
        <time>2012-04-02T18:48:17Z</time>
      </trkpt>
      <trkpt lat="59.9790929831" lon="23.4358225748">
        <ele>21.8</ele>
        <time>2012-04-02T18:48:27Z</time>
      </trkpt>
      <trkpt lat="59.9788664204" lon="23.4357575313">
        <ele>21.8</ele>
        <time>2012-04-02T18:48:34Z</time>
      </trkpt>
      <trkpt lat="59.9786798393" lon="23.4356254326">
        <ele>21.8</ele>
        <time>2012-04-02T18:48:40Z</time>
      </trkpt>
      <trkpt lat="59.9785085133" lon="23.4354146278">
        <ele>21.8</ele>
        <time>2012-04-02T18:48:46Z</time>
      </trkpt>
      <trkpt lat="59.9783415458" lon="23.4352051641">
        <ele>21.8</ele>
        <time>2012-04-02T18:48:52Z</time>
      </trkpt>
      <trkpt lat="59.9781698845" lon="23.4350065969">
        <ele>22</ele>
        <time>2012-04-02T18:48:58Z</time>
      </trkpt>
      <trkpt lat="59.9780376181" lon="23.4347338498">
        <ele>23</ele>
        <time>2012-04-02T18:49:04Z</time>
      </trkpt>
      <trkpt lat="59.9779216126" lon="23.4345343606">
        <ele>23.4</ele>
        <time>2012-04-02T18:49:09Z</time>
      </trkpt>
      <trkpt lat="59.9777761028" lon="23.4343122403">
        <ele>24.6</ele>
        <time>2012-04-02T18:49:15Z</time>
      </trkpt>
      <trkpt lat="59.9776799624" lon="23.4341661438">
        <ele>25</ele>
        <time>2012-04-02T18:49:19Z</time>
      </trkpt>
      <trkpt lat="59.9776122367" lon="23.4340836659">
        <ele>25.2</ele>
        <time>2012-04-02T18:49:22Z</time>
      </trkpt>
      <trkpt lat="59.9774476162" lon="23.4338805724">
        <ele>25.6</ele>
        <time>2012-04-02T18:49:28Z</time>
      </trkpt>
      <trkpt lat="59.9772951494" lon="23.4336711087">
        <ele>25.8</ele>
        <time>2012-04-02T18:49:34Z</time>
      </trkpt>
      <trkpt lat="59.9771451134" lon="23.4334562807">
        <ele>25.8</ele>
        <time>2012-04-02T18:49:40Z</time>
      </trkpt>
      <trkpt lat="59.9770166189" lon="23.433280596">
        <ele>26</ele>
        <time>2012-04-02T18:49:45Z</time>
      </trkpt>
      <trkpt lat="59.9768556864" lon="23.4330497585">
        <ele>25.6</ele>
        <time>2012-04-02T18:49:51Z</time>
      </trkpt>
      <trkpt lat="59.9767214084" lon="23.4328705535">
        <ele>25</ele>
        <time>2012-04-02T18:49:56Z</time>
      </trkpt>
      <trkpt lat="59.9765748089" lon="23.4326867384">
        <ele>24.6</ele>
        <time>2012-04-02T18:50:01Z</time>
      </trkpt>
      <trkpt lat="59.976426114" lon="23.4325481856">
        <ele>24.2</ele>
        <time>2012-04-02T18:50:06Z</time>
      </trkpt>
      <trkpt lat="59.976247831" lon="23.432502169">
        <ele>24.2</ele>
        <time>2012-04-02T18:50:12Z</time>
      </trkpt>
      <trkpt lat="59.9761141397" lon="23.4325805397">
        <ele>24</ele>
        <time>2012-04-02T18:50:17Z</time>
      </trkpt>
      <trkpt lat="59.975954213" lon="23.4327314139">
        <ele>23.2</ele>
        <time>2012-04-02T18:50:23Z</time>
      </trkpt>
      <trkpt lat="59.9757879161" lon="23.432874493">
        <ele>22.4</ele>
        <time>2012-04-02T18:50:29Z</time>
      </trkpt>
      <trkpt lat="59.9756236309" lon="23.4329405423">
        <ele>21.8</ele>
        <time>2012-04-02T18:50:35Z</time>
      </trkpt>
      <trkpt lat="59.9754986568" lon="23.4328237825">
        <ele>21</ele>
        <time>2012-04-02T18:50:39Z</time>
      </trkpt>
      <trkpt lat="59.975373515" lon="23.4326873251">
        <ele>20.6</ele>
        <time>2012-04-02T18:50:44Z</time>
      </trkpt>
      <trkpt lat="59.9752066314" lon="23.4324833935">
        <ele>20.2</ele>
        <time>2012-04-02T18:50:50Z</time>
      </trkpt>
      <trkpt lat="59.9750628818" lon="23.4323347824">
        <ele>20</ele>
        <time>2012-04-02T18:50:55Z</time>
      </trkpt>
      <trkpt lat="59.9749274303" lon="23.4322041086">
        <ele>19.8</ele>
        <time>2012-04-02T18:51:00Z</time>
      </trkpt>
      <trkpt lat="59.974762726" lon="23.4320262447">
        <ele>19.8</ele>
        <time>2012-04-02T18:51:06Z</time>
      </trkpt>
      <trkpt lat="59.9746695192" lon="23.431857098">
        <ele>19.8</ele>
        <time>2012-04-02T18:51:10Z</time>
      </trkpt>
      <trkpt lat="59.9746700221" lon="23.4317971674">
        <ele>19.8</ele>
        <time>2012-04-02T18:51:11Z</time>
      </trkpt>
      <trkpt lat="59.9747025439" lon="23.4314901384">
        <ele>19.8</ele>
        <time>2012-04-02T18:51:16Z</time>
      </trkpt>
      <trkpt lat="59.9747200621" lon="23.4310697861">
        <ele>19.6</ele>
        <time>2012-04-02T18:51:23Z</time>
      </trkpt>
      <trkpt lat="59.9747110096" lon="23.4306733222">
        <ele>19.6</ele>
        <time>2012-04-02T18:51:29Z</time>
      </trkpt>
      <trkpt lat="59.9745561959" lon="23.4302104737">
        <ele>18.4</ele>
        <time>2012-04-02T18:51:38Z</time>
      </trkpt>
      <trkpt lat="59.9744604746" lon="23.4300482001">
        <ele>18.2</ele>
        <time>2012-04-02T18:51:42Z</time>
      </trkpt>
      <trkpt lat="59.9743229277" lon="23.4298201286">
        <ele>18</ele>
        <time>2012-04-02T18:51:48Z</time>
      </trkpt>
      <trkpt lat="59.9741905775" lon="23.4296415103">
        <ele>17.8</ele>
        <time>2012-04-02T18:51:53Z</time>
      </trkpt>
      <trkpt lat="59.9740600713" lon="23.4294664963">
        <ele>17.8</ele>
        <time>2012-04-02T18:51:58Z</time>
      </trkpt>
      <trkpt lat="59.9738885776" lon="23.4292704436">
        <ele>17.8</ele>
        <time>2012-04-02T18:52:04Z</time>
      </trkpt>
      <trkpt lat="59.9737522879" lon="23.4291071642">
        <ele>17.8</ele>
        <time>2012-04-02T18:52:09Z</time>
      </trkpt>
      <trkpt lat="59.9735855719" lon="23.4288857144">
        <ele>17.6</ele>
        <time>2012-04-02T18:52:15Z</time>
      </trkpt>
      <trkpt lat="59.9734340272" lon="23.4286786815">
        <ele>17.6</ele>
        <time>2012-04-02T18:52:21Z</time>
      </trkpt>
      <trkpt lat="59.9731660578" lon="23.4285059305">
        <ele>17.6</ele>
        <time>2012-04-02T18:52:30Z</time>
      </trkpt>
      <trkpt lat="59.9729954862" lon="23.4284963751">
        <ele>17.4</ele>
        <time>2012-04-02T18:52:36Z</time>
      </trkpt>
      <trkpt lat="59.9728146048" lon="23.4285554675">
        <ele>16.4</ele>
        <time>2012-04-02T18:52:42Z</time>
      </trkpt>
      <trkpt lat="59.9726386687" lon="23.4286508536">
        <ele>16</ele>
        <time>2012-04-02T18:52:48Z</time>
      </trkpt>
      <trkpt lat="59.9724572844" lon="23.428726123">
        <ele>15.8</ele>
        <time>2012-04-02T18:52:54Z</time>
      </trkpt>
      <trkpt lat="59.9722680211" lon="23.4287387797">
        <ele>15.8</ele>
        <time>2012-04-02T18:53:00Z</time>
      </trkpt>
      <trkpt lat="59.9720863853" lon="23.4287592315">
        <ele>15</ele>
        <time>2012-04-02T18:53:06Z</time>
      </trkpt>
      <trkpt lat="59.9719101978" lon="23.4288151388">
        <ele>14.4</ele>
        <time>2012-04-02T18:53:12Z</time>
      </trkpt>
      <trkpt lat="59.9717343455" lon="23.4288955212">
        <ele>14</ele>
        <time>2012-04-02T18:53:18Z</time>
      </trkpt>
      <trkpt lat="59.9715911826" lon="23.4290168073">
        <ele>13.8</ele>
        <time>2012-04-02T18:53:23Z</time>
      </trkpt>
      <trkpt lat="59.9714844811" lon="23.4293615549">
        <ele>13.8</ele>
        <time>2012-04-02T18:53:30Z</time>
      </trkpt>
      <trkpt lat="59.9715056873" lon="23.4295361498">
        <ele>13.8</ele>
        <time>2012-04-02T18:53:33Z</time>
      </trkpt>
      <trkpt lat="59.9715963794" lon="23.429961196">
        <ele>13.6</ele>
        <time>2012-04-02T18:53:40Z</time>
      </trkpt>
      <trkpt lat="59.9716777677" lon="23.4302846535">
        <ele>13.6</ele>
        <time>2012-04-02T18:53:46Z</time>
      </trkpt>
      <trkpt lat="59.971745242" lon="23.4305463364">
        <ele>13.6</ele>
        <time>2012-04-02T18:53:51Z</time>
      </trkpt>
      <trkpt lat="59.9717867324" lon="23.4307743241">
        <ele>13.6</ele>
        <time>2012-04-02T18:53:55Z</time>
      </trkpt>
      <trkpt lat="59.9718371914" lon="23.4310001325">
        <ele>13.6</ele>
        <time>2012-04-02T18:53:59Z</time>
      </trkpt>
      <trkpt lat="59.9719142211" lon="23.4312857876">
        <ele>13.6</ele>
        <time>2012-04-02T18:54:04Z</time>
      </trkpt>
      <trkpt lat="59.9719658536" lon="23.4314434512">
        <ele>13.6</ele>
        <time>2012-04-02T18:54:07Z</time>
      </trkpt>
      <trkpt lat="59.9720171508" lon="23.4315911403">
        <ele>13.6</ele>
        <time>2012-04-02T18:54:10Z</time>
      </trkpt>
      <trkpt lat="59.9721125368" lon="23.4318129253">
        <ele>13.6</ele>
        <time>2012-04-02T18:54:15Z</time>
      </trkpt>
      <trkpt lat="59.972225441" lon="23.4320611972">
        <ele>13.6</ele>
        <time>2012-04-02T18:54:21Z</time>
      </trkpt>
      <trkpt lat="59.9723127804" lon="23.4322616084">
        <ele>13.6</ele>
        <time>2012-04-02T18:54:25Z</time>
      </trkpt>
      <trkpt lat="59.9723404407" lon="23.432415081">
        <ele>13.6</ele>
        <time>2012-04-02T18:54:28Z</time>
      </trkpt>
      <trkpt lat="59.9722033966" lon="23.4327535422">
        <ele>13.6</ele>
        <time>2012-04-02T18:54:35Z</time>
      </trkpt>
      <trkpt lat="59.9720416259" lon="23.4330516863">
        <ele>13.6</ele>
        <time>2012-04-02T18:54:42Z</time>
      </trkpt>
      <trkpt lat="59.9719625846" lon="23.4332480743">
        <ele>13.6</ele>
        <time>2012-04-02T18:54:46Z</time>
      </trkpt>
      <trkpt lat="59.9720091042" lon="23.4334699431">
        <ele>13.6</ele>
        <time>2012-04-02T18:54:50Z</time>
      </trkpt>
      <trkpt lat="59.9720291369" lon="23.433511685">
        <ele>13.6</ele>
        <time>2012-04-02T18:54:51Z</time>
      </trkpt>
      <trkpt lat="59.9721431308" lon="23.4337123477">
        <ele>13.6</ele>
        <time>2012-04-02T18:54:56Z</time>
      </trkpt>
      <trkpt lat="59.9722841981" lon="23.4339476276">
        <ele>12.8</ele>
        <time>2012-04-02T18:55:02Z</time>
      </trkpt>
      <trkpt lat="59.972396348" lon="23.4341404113">
        <ele>12.2</ele>
        <time>2012-04-02T18:55:07Z</time>
      </trkpt>
      <trkpt lat="59.972488465" lon="23.4344420759">
        <ele>12</ele>
        <time>2012-04-02T18:55:13Z</time>
      </trkpt>
      <trkpt lat="59.9724889679" lon="23.4348294873">
        <ele>11.8</ele>
        <time>2012-04-02T18:55:19Z</time>
      </trkpt>
      <trkpt lat="59.9724467232" lon="23.4350563015">
        <ele>11.6</ele>
        <time>2012-04-02T18:55:23Z</time>
      </trkpt>
      <trkpt lat="59.97236852" lon="23.4353102731">
        <ele>11.6</ele>
        <time>2012-04-02T18:55:28Z</time>
      </trkpt>
      <trkpt lat="59.9721934222" lon="23.4355490734">
        <ele>11.6</ele>
        <time>2012-04-02T18:55:35Z</time>
      </trkpt>
      <trkpt lat="59.9720619101" lon="23.4356721197">
        <ele>11.6</ele>
        <time>2012-04-02T18:55:40Z</time>
      </trkpt>
      <trkpt lat="59.9719258719" lon="23.4358117622">
        <ele>11.6</ele>
        <time>2012-04-02T18:55:45Z</time>
      </trkpt>
      <trkpt lat="59.9717977127" lon="23.435954925">
        <ele>11.6</ele>
        <time>2012-04-02T18:55:50Z</time>
      </trkpt>
      <trkpt lat="59.9716631832" lon="23.4360920529">
        <ele>11.6</ele>
        <time>2012-04-02T18:55:55Z</time>
      </trkpt>
      <trkpt lat="59.9715233731" lon="23.436166568">
        <ele>11.6</ele>
        <time>2012-04-02T18:56:00Z</time>
      </trkpt>
      <trkpt lat="59.9713426593" lon="23.4361588567">
        <ele>11.6</ele>
        <time>2012-04-02T18:56:06Z</time>
      </trkpt>
      <trkpt lat="59.9711430024" lon="23.4361332081">
        <ele>11.6</ele>
        <time>2012-04-02T18:56:13Z</time>
      </trkpt>
      <trkpt lat="59.9710059584" lon="23.4361140135">
        <ele>11.6</ele>
        <time>2012-04-02T18:56:18Z</time>
      </trkpt>
      <trkpt lat="59.9708556709" lon="23.4360876105">
        <ele>11.6</ele>
        <time>2012-04-02T18:56:23Z</time>
      </trkpt>
      <trkpt lat="59.9706695927" lon="23.4360969982">
        <ele>11.6</ele>
        <time>2012-04-02T18:56:29Z</time>
      </trkpt>
      <trkpt lat="59.9704607996" lon="23.4361342139">
        <ele>12.6</ele>
        <time>2012-04-02T18:56:36Z</time>
      </trkpt>
      <trkpt lat="59.9703224983" lon="23.4361922166">
        <ele>13</ele>
        <time>2012-04-02T18:56:41Z</time>
      </trkpt>
      <trkpt lat="59.9701499988" lon="23.4362603615">
        <ele>13.4</ele>
        <time>2012-04-02T18:56:47Z</time>
      </trkpt>
      <trkpt lat="59.9699740627" lon="23.4363405763">
        <ele>13.4</ele>
        <time>2012-04-02T18:56:53Z</time>
      </trkpt>
      <trkpt lat="59.9697943547" lon="23.4364352917">
        <ele>14.6</ele>
        <time>2012-04-02T18:56:59Z</time>
      </trkpt>
      <trkpt lat="59.9696212685" lon="23.4365375509">
        <ele>15</ele>
        <time>2012-04-02T18:57:05Z</time>
      </trkpt>
      <trkpt lat="59.9695159918" lon="23.4366555681">
        <ele>15.4</ele>
        <time>2012-04-02T18:57:10Z</time>
      </trkpt>
      <trkpt lat="59.9694667901" lon="23.4367760998">
        <ele>15.4</ele>
        <time>2012-04-02T18:57:13Z</time>
      </trkpt>
      <trkpt lat="59.9694655328" lon="23.4370439853">
        <ele>15.6</ele>
        <time>2012-04-02T18:57:18Z</time>
      </trkpt>
      <trkpt lat="59.9694778542" lon="23.4371548778">
        <ele>15.6</ele>
        <time>2012-04-02T18:57:20Z</time>
      </trkpt>
      <trkpt lat="59.9695555544" lon="23.4373920856">
        <ele>15.6</ele>
        <time>2012-04-02T18:57:25Z</time>
      </trkpt>
      <trkpt lat="59.9696411336" lon="23.4375392718">
        <ele>15.6</ele>
        <time>2012-04-02T18:57:29Z</time>
      </trkpt>
      <trkpt lat="59.9697640961" lon="23.4376703647">
        <ele>15.6</ele>
        <time>2012-04-02T18:57:34Z</time>
      </trkpt>
      <trkpt lat="59.9699087677" lon="23.4377655831">
        <ele>15.6</ele>
        <time>2012-04-02T18:57:39Z</time>
      </trkpt>
      <trkpt lat="59.9699321532" lon="23.43780129">
        <ele>15.6</ele>
        <time>2012-04-02T18:57:40Z</time>
      </trkpt>
      <trkpt lat="59.9699866355" lon="23.438023075">
        <ele>15.6</ele>
        <time>2012-04-02T18:57:44Z</time>
      </trkpt>
      <trkpt lat="59.969998454" lon="23.4381282679">
        <ele>15.8</ele>
        <time>2012-04-02T18:57:46Z</time>
      </trkpt>
      <trkpt lat="59.9699264535" lon="23.4384554134">
        <ele>16</ele>
        <time>2012-04-02T18:57:52Z</time>
      </trkpt>
      <trkpt lat="59.9698285529" lon="23.4387613528">
        <ele>16.8</ele>
        <time>2012-04-02T18:57:58Z</time>
      </trkpt>
      <trkpt lat="59.9697352623" lon="23.4390985566">
        <ele>17.4</ele>
        <time>2012-04-02T18:58:04Z</time>
      </trkpt>
      <trkpt lat="59.9696593223" lon="23.4393539531">
        <ele>17.4</ele>
        <time>2012-04-02T18:58:09Z</time>
      </trkpt>
      <trkpt lat="59.9695808677" lon="23.4396885586">
        <ele>17.6</ele>
        <time>2012-04-02T18:58:15Z</time>
      </trkpt>
      <trkpt lat="59.9695120523" lon="23.439961138">
        <ele>17.6</ele>
        <time>2012-04-02T18:58:20Z</time>
      </trkpt>
      <trkpt lat="59.9694281495" lon="23.4403104117">
        <ele>17.8</ele>
        <time>2012-04-02T18:58:26Z</time>
      </trkpt>
      <trkpt lat="59.9693458393" lon="23.4406755273">
        <ele>18.4</ele>
        <time>2012-04-02T18:58:32Z</time>
      </trkpt>
      <trkpt lat="59.9692661274" lon="23.4409293312">
        <ele>19</ele>
        <time>2012-04-02T18:58:37Z</time>
      </trkpt>
      <trkpt lat="59.9691784527" lon="23.4411846439">
        <ele>19.4</ele>
        <time>2012-04-02T18:58:42Z</time>
      </trkpt>
      <trkpt lat="59.969101926" lon="23.4414881525">
        <ele>19.6</ele>
        <time>2012-04-02T18:58:48Z</time>
      </trkpt>
      <trkpt lat="59.9690365472" lon="23.4418266974">
        <ele>20.8</ele>
        <time>2012-04-02T18:58:54Z</time>
      </trkpt>
      <trkpt lat="59.9689540693" lon="23.4421743787">
        <ele>21.8</ele>
        <time>2012-04-02T18:59:00Z</time>
      </trkpt>
      <trkpt lat="59.968883326" lon="23.4424629675">
        <ele>22.8</ele>
        <time>2012-04-02T18:59:05Z</time>
      </trkpt>
      <trkpt lat="59.9688725972" lon="23.4425158573">
        <ele>22.8</ele>
        <time>2012-04-02T18:59:06Z</time>
      </trkpt>
      <trkpt lat="59.9687996747" lon="23.4428205393">
        <ele>23.4</ele>
        <time>2012-04-02T18:59:11Z</time>
      </trkpt>
      <trkpt lat="59.9687261654" lon="23.4432056038">
        <ele>23.6</ele>
        <time>2012-04-02T18:59:18Z</time>
      </trkpt>
      <trkpt lat="59.9686426817" lon="23.4435392034">
        <ele>23.8</ele>
        <time>2012-04-02T18:59:24Z</time>
      </trkpt>
      <trkpt lat="59.9685623831" lon="23.4437594798">
        <ele>24</ele>
        <time>2012-04-02T18:59:29Z</time>
      </trkpt>
      <trkpt lat="59.968462387" lon="23.4441037244">
        <ele>24</ele>
        <time>2012-04-02T18:59:36Z</time>
      </trkpt>
      <trkpt lat="59.9683905541" lon="23.4443385014">
        <ele>24</ele>
        <time>2012-04-02T18:59:41Z</time>
      </trkpt>
      <trkpt lat="59.9682903904" lon="23.4446187083">
        <ele>24</ele>
        <time>2012-04-02T18:59:47Z</time>
      </trkpt>
      <trkpt lat="59.9682083316" lon="23.4448623702">
        <ele>24</ele>
        <time>2012-04-02T18:59:52Z</time>
      </trkpt>
      <trkpt lat="59.9681272786" lon="23.4450907769">
        <ele>24</ele>
        <time>2012-04-02T18:59:57Z</time>
      </trkpt>
      <trkpt lat="59.9680354968" lon="23.4453914357">
        <ele>24</ele>
        <time>2012-04-02T19:00:03Z</time>
      </trkpt>
      <trkpt lat="59.9679425416" lon="23.4457017336">
        <ele>24</ele>
        <time>2012-04-02T19:00:09Z</time>
      </trkpt>
      <trkpt lat="59.9678803479" lon="23.445902564">
        <ele>24</ele>
        <time>2012-04-02T19:00:13Z</time>
      </trkpt>
      <trkpt lat="59.9678071739" lon="23.4461518417">
        <ele>24</ele>
        <time>2012-04-02T19:00:18Z</time>
      </trkpt>
      <trkpt lat="59.9677034898" lon="23.4464662467">
        <ele>23.4</ele>
        <time>2012-04-02T19:00:24Z</time>
      </trkpt>
      <trkpt lat="59.9675909209" lon="23.4467362277">
        <ele>22.8</ele>
        <time>2012-04-02T19:00:30Z</time>
      </trkpt>
      <trkpt lat="59.9675003963" lon="23.4469805601">
        <ele>22.4</ele>
        <time>2012-04-02T19:00:35Z</time>
      </trkpt>
      <trkpt lat="59.9674047589" lon="23.4472217074">
        <ele>21.4</ele>
        <time>2012-04-02T19:00:40Z</time>
      </trkpt>
      <trkpt lat="59.9672681339" lon="23.4475223661">
        <ele>20.6</ele>
        <time>2012-04-02T19:00:47Z</time>
      </trkpt>
      <trkpt lat="59.9671436627" lon="23.4477905869">
        <ele>20.2</ele>
        <time>2012-04-02T19:00:53Z</time>
      </trkpt>
      <trkpt lat="59.9670552336" lon="23.4480122044">
        <ele>20</ele>
        <time>2012-04-02T19:00:58Z</time>
      </trkpt>
      <trkpt lat="59.9669598476" lon="23.4482821854">
        <ele>19.6</ele>
        <time>2012-04-02T19:01:03Z</time>
      </trkpt>
      <trkpt lat="59.9668643778" lon="23.4485436168">
        <ele>18.8</ele>
        <time>2012-04-02T19:01:08Z</time>
      </trkpt>
      <trkpt lat="59.9667591849" lon="23.4487795673">
        <ele>18.4</ele>
        <time>2012-04-02T19:01:13Z</time>
      </trkpt>
      <trkpt lat="59.9666358034" lon="23.4490808128">
        <ele>18.2</ele>
        <time>2012-04-02T19:01:19Z</time>
      </trkpt>
      <trkpt lat="59.966539663" lon="23.4493503747">
        <ele>18</ele>
        <time>2012-04-02T19:01:24Z</time>
      </trkpt>
      <trkpt lat="59.9664376552" lon="23.4496122253">
        <ele>18</ele>
        <time>2012-04-02T19:01:29Z</time>
      </trkpt>
      <trkpt lat="59.9663538362" lon="23.4498768418">
        <ele>17.8</ele>
        <time>2012-04-02T19:01:34Z</time>
      </trkpt>
      <trkpt lat="59.9663376592" lon="23.4500609084">
        <ele>17.8</ele>
        <time>2012-04-02T19:01:37Z</time>
      </trkpt>
      <trkpt lat="59.9664365656" lon="23.4502485791">
        <ele>17.8</ele>
        <time>2012-04-02T19:01:42Z</time>
      </trkpt>
      <trkpt lat="59.9664658184" lon="23.4502640018">
        <ele>17.8</ele>
        <time>2012-04-02T19:01:43Z</time>
      </trkpt>
      <trkpt lat="59.9666449396" lon="23.4503763193">
        <ele>17.8</ele>
        <time>2012-04-02T19:01:49Z</time>
      </trkpt>
      <trkpt lat="59.9667955624" lon="23.4504536004">
        <ele>17</ele>
        <time>2012-04-02T19:01:54Z</time>
      </trkpt>
      <trkpt lat="59.9669436705" lon="23.4505473938">
        <ele>16.4</ele>
        <time>2012-04-02T19:01:59Z</time>
      </trkpt>
      <trkpt lat="59.9671213668" lon="23.450657532">
        <ele>16</ele>
        <time>2012-04-02T19:02:05Z</time>
      </trkpt>
      <trkpt lat="59.9672905974" lon="23.4507933188">
        <ele>15</ele>
        <time>2012-04-02T19:02:11Z</time>
      </trkpt>
      <trkpt lat="59.9674270547" lon="23.4509413431">
        <ele>14.4</ele>
        <time>2012-04-02T19:02:16Z</time>
      </trkpt>
      <trkpt lat="59.9675563874" lon="23.4510721008">
        <ele>14.2</ele>
        <time>2012-04-02T19:02:21Z</time>
      </trkpt>
      <trkpt lat="59.9676701298" lon="23.4512412475">
        <ele>14</ele>
        <time>2012-04-02T19:02:26Z</time>
      </trkpt>
      <trkpt lat="59.9677796813" lon="23.4514688161">
        <ele>13.8</ele>
        <time>2012-04-02T19:02:31Z</time>
      </trkpt>
      <trkpt lat="59.9679001292" lon="23.4517483525">
        <ele>13.8</ele>
        <time>2012-04-02T19:02:37Z</time>
      </trkpt>
      <trkpt lat="59.9680277017" lon="23.4520235303">
        <ele>13.6</ele>
        <time>2012-04-02T19:02:43Z</time>
      </trkpt>
      <trkpt lat="59.9681328107" lon="23.4522594807">
        <ele>13.6</ele>
        <time>2012-04-02T19:02:48Z</time>
      </trkpt>
      <trkpt lat="59.9682384226" lon="23.4525003765">
        <ele>13.6</ele>
        <time>2012-04-02T19:02:53Z</time>
      </trkpt>
      <trkpt lat="59.9683412686" lon="23.4527580362">
        <ele>13.6</ele>
        <time>2012-04-02T19:02:58Z</time>
      </trkpt>
      <trkpt lat="59.968435062" lon="23.4530006083">
        <ele>13.6</ele>
        <time>2012-04-02T19:03:03Z</time>
      </trkpt>
      <trkpt lat="59.9685224852" lon="23.453179059">
        <ele>13.6</ele>
        <time>2012-04-02T19:03:07Z</time>
      </trkpt>
      <trkpt lat="59.9686373173" lon="23.4534375568">
        <ele>13.6</ele>
        <time>2012-04-02T19:03:13Z</time>
      </trkpt>
      <trkpt lat="59.9687534904" lon="23.4537135728">
        <ele>13.6</ele>
        <time>2012-04-02T19:03:19Z</time>
      </trkpt>
      <trkpt lat="59.968931019" lon="23.4541677879">
        <ele>13.6</ele>
        <time>2012-04-02T19:03:29Z</time>
      </trkpt>
      <trkpt lat="59.969059765" lon="23.4544685305">
        <ele>13.6</ele>
        <time>2012-04-02T19:03:36Z</time>
      </trkpt>
      <trkpt lat="59.9691981502" lon="23.4546618171">
        <ele>13.6</ele>
        <time>2012-04-02T19:03:42Z</time>
      </trkpt>
      <trkpt lat="59.9693363677" lon="23.4549260146">
        <ele>13.6</ele>
        <time>2012-04-02T19:03:48Z</time>
      </trkpt>
      <trkpt lat="59.9694498586" lon="23.4552078979">
        <ele>13.6</ele>
        <time>2012-04-02T19:03:54Z</time>
      </trkpt>
      <trkpt lat="59.9695188417" lon="23.4553855103">
        <ele>13.6</ele>
        <time>2012-04-02T19:03:58Z</time>
      </trkpt>
      <trkpt lat="59.9695785208" lon="23.4555218839">
        <ele>13.6</ele>
        <time>2012-04-02T19:04:01Z</time>
      </trkpt>
      <trkpt lat="59.9696151497" lon="23.4555989973">
        <ele>13.6</ele>
        <time>2012-04-02T19:04:03Z</time>
      </trkpt>
      <trkpt lat="59.9697413811" lon="23.4557278271">
        <ele>13.6</ele>
        <time>2012-04-02T19:04:08Z</time>
      </trkpt>
      <trkpt lat="59.9698858851" lon="23.4557066209">
        <ele>13.6</ele>
        <time>2012-04-02T19:04:13Z</time>
      </trkpt>
      <trkpt lat="59.9700023935" lon="23.4556673098">
        <ele>13.6</ele>
        <time>2012-04-02T19:04:17Z</time>
      </trkpt>
      <trkpt lat="59.9701385994" lon="23.4556489535">
        <ele>13.6</ele>
        <time>2012-04-02T19:04:22Z</time>
      </trkpt>
      <trkpt lat="59.9703020464" lon="23.4555418328">
        <ele>13.6</ele>
        <time>2012-04-02T19:04:28Z</time>
      </trkpt>
      <trkpt lat="59.9704602129" lon="23.4554796391">
        <ele>13.6</ele>
        <time>2012-04-02T19:04:33Z</time>
      </trkpt>
      <trkpt lat="59.9705979275" lon="23.4555035275">
        <ele>13.6</ele>
        <time>2012-04-02T19:04:38Z</time>
      </trkpt>
      <trkpt lat="59.9707876937" lon="23.4556636218">
        <ele>13.6</ele>
        <time>2012-04-02T19:04:44Z</time>
      </trkpt>
      <trkpt lat="59.9709053756" lon="23.4558082934">
        <ele>13.6</ele>
        <time>2012-04-02T19:04:49Z</time>
      </trkpt>
      <trkpt lat="59.9710539867" lon="23.4559668789">
        <ele>13.6</ele>
        <time>2012-04-02T19:04:54Z</time>
      </trkpt>
      <trkpt lat="59.9712173499" lon="23.4561341817">
        <ele>13.6</ele>
        <time>2012-04-02T19:05:00Z</time>
      </trkpt>
      <trkpt lat="59.9713667154" lon="23.4562802782">
        <ele>13.6</ele>
        <time>2012-04-02T19:05:05Z</time>
      </trkpt>
      <trkpt lat="59.9715329284" lon="23.4564491735">
        <ele>13.6</ele>
        <time>2012-04-02T19:05:11Z</time>
      </trkpt>
      <trkpt lat="59.9716718165" lon="23.4566030651">
        <ele>13.6</ele>
        <time>2012-04-02T19:05:16Z</time>
      </trkpt>
      <trkpt lat="59.9718339225" lon="23.4567613154">
        <ele>13.6</ele>
        <time>2012-04-02T19:05:22Z</time>
      </trkpt>
      <trkpt lat="59.9720050809" lon="23.4569278638">
        <ele>14</ele>
        <time>2012-04-02T19:05:28Z</time>
      </trkpt>
      <trkpt lat="59.972165259" lon="23.4570614713">
        <ele>14.8</ele>
        <time>2012-04-02T19:05:34Z</time>
      </trkpt>
      <trkpt lat="59.9723080865" lon="23.457103716">
        <ele>15.2</ele>
        <time>2012-04-02T19:05:39Z</time>
      </trkpt>
      <trkpt lat="59.9724505788" lon="23.4571982639">
        <ele>15.4</ele>
        <time>2012-04-02T19:05:44Z</time>
      </trkpt>
      <trkpt lat="59.9725719488" lon="23.4573301111">
        <ele>15.4</ele>
        <time>2012-04-02T19:05:49Z</time>
      </trkpt>
      <trkpt lat="59.9727256728" lon="23.4574994255">
        <ele>15.6</ele>
        <time>2012-04-02T19:05:55Z</time>
      </trkpt>
      <trkpt lat="59.9728751221" lon="23.4576940532">
        <ele>15.6</ele>
        <time>2012-04-02T19:06:01Z</time>
      </trkpt>
      <trkpt lat="59.9729978331" lon="23.4578431672">
        <ele>15.6</ele>
        <time>2012-04-02T19:06:06Z</time>
      </trkpt>
      <trkpt lat="59.9730969072" lon="23.4579788702">
        <ele>15.6</ele>
        <time>2012-04-02T19:06:10Z</time>
      </trkpt>
      <trkpt lat="59.9732220489" lon="23.4581522917">
        <ele>16</ele>
        <time>2012-04-02T19:06:15Z</time>
      </trkpt>
      <trkpt lat="59.973341491" lon="23.4583195106">
        <ele>16.8</ele>
        <time>2012-04-02T19:06:20Z</time>
      </trkpt>
      <trkpt lat="59.9735890923" lon="23.458674065">
        <ele>17.6</ele>
        <time>2012-04-02T19:06:30Z</time>
      </trkpt>
      <trkpt lat="59.9738548824" lon="23.459039432">
        <ele>19.2</ele>
        <time>2012-04-02T19:06:41Z</time>
      </trkpt>
      <trkpt lat="59.9739755817" lon="23.459201035">
        <ele>19.6</ele>
        <time>2012-04-02T19:06:46Z</time>
      </trkpt>
      <trkpt lat="59.9741113685" lon="23.4593822517">
        <ele>20.2</ele>
        <time>2012-04-02T19:06:52Z</time>
      </trkpt>
      <trkpt lat="59.9742145497" lon="23.459566905">
        <ele>21</ele>
        <time>2012-04-02T19:06:57Z</time>
      </trkpt>
      <trkpt lat="59.9743094328" lon="23.4597674838">
        <ele>21.4</ele>
        <time>2012-04-02T19:07:02Z</time>
      </trkpt>
      <trkpt lat="59.9744238457" lon="23.4600250596">
        <ele>22.6</ele>
        <time>2012-04-02T19:07:08Z</time>
      </trkpt>
      <trkpt lat="59.9745114366" lon="23.4602631056">
        <ele>23.2</ele>
        <time>2012-04-02T19:07:13Z</time>
      </trkpt>
      <trkpt lat="59.9745910646" lon="23.4605232798">
        <ele>23.6</ele>
        <time>2012-04-02T19:07:18Z</time>
      </trkpt>
      <trkpt lat="59.9746654121" lon="23.4607476632">
        <ele>24</ele>
        <time>2012-04-02T19:07:23Z</time>
      </trkpt>
      <trkpt lat="59.9747498178" lon="23.461094171">
        <ele>25</ele>
        <time>2012-04-02T19:07:29Z</time>
      </trkpt>
      <trkpt lat="59.9748119277" lon="23.4614880365">
        <ele>25.6</ele>
        <time>2012-04-02T19:07:36Z</time>
      </trkpt>
      <trkpt lat="59.9748617162" lon="23.4618371426">
        <ele>26.6</ele>
        <time>2012-04-02T19:07:42Z</time>
      </trkpt>
      <trkpt lat="59.9749036257" lon="23.462106956">
        <ele>27.2</ele>
        <time>2012-04-02T19:07:47Z</time>
      </trkpt>
      <trkpt lat="59.9749638916" lon="23.4622825568">
        <ele>27.6</ele>
        <time>2012-04-02T19:07:51Z</time>
      </trkpt>
      <trkpt lat="59.9750542484" lon="23.4622567405">
        <ele>28.2</ele>
        <time>2012-04-02T19:07:55Z</time>
      </trkpt>
      <trkpt lat="59.9750791427" lon="23.4622331874">
        <ele>28.4</ele>
        <time>2012-04-02T19:07:56Z</time>
      </trkpt>
      <trkpt lat="59.9752443499" lon="23.4620912818">
        <ele>29.2</ele>
        <time>2012-04-02T19:08:02Z</time>
      </trkpt>
      <trkpt lat="59.9754108983" lon="23.4619302655">
        <ele>29.6</ele>
        <time>2012-04-02T19:08:08Z</time>
      </trkpt>
      <trkpt lat="59.975563365" lon="23.4618001784">
        <ele>30</ele>
        <time>2012-04-02T19:08:14Z</time>
      </trkpt>
      <trkpt lat="59.9757241299" lon="23.4616805687">
        <ele>30</ele>
        <time>2012-04-02T19:08:20Z</time>
      </trkpt>
      <trkpt lat="59.9758322564" lon="23.4616404194">
        <ele>30.2</ele>
        <time>2012-04-02T19:08:24Z</time>
      </trkpt>
      <trkpt lat="59.9760057617" lon="23.4615379926">
        <ele>30.2</ele>
        <time>2012-04-02T19:08:30Z</time>
      </trkpt>
      <trkpt lat="59.9761366032" lon="23.461455347">
        <ele>30.2</ele>
        <time>2012-04-02T19:08:35Z</time>
      </trkpt>
      <trkpt lat="59.9763171493" lon="23.4613563568">
        <ele>30.2</ele>
        <time>2012-04-02T19:08:41Z</time>
      </trkpt>
      <trkpt lat="59.9764919957" lon="23.4612620604">
        <ele>30.2</ele>
        <time>2012-04-02T19:08:47Z</time>
      </trkpt>
      <trkpt lat="59.9766986934" lon="23.461169189">
        <ele>31</ele>
        <time>2012-04-02T19:08:54Z</time>
      </trkpt>
      <trkpt lat="59.9768381682" lon="23.4610915726">
        <ele>31.6</ele>
        <time>2012-04-02T19:08:59Z</time>
      </trkpt>
      <trkpt lat="59.9769841809" lon="23.4610187339">
        <ele>31.8</ele>
        <time>2012-04-02T19:09:04Z</time>
      </trkpt>
      <trkpt lat="59.9771660681" lon="23.4609337414">
        <ele>32</ele>
        <time>2012-04-02T19:09:10Z</time>
      </trkpt>
      <trkpt lat="59.9773410822" lon="23.4608509282">
        <ele>32</ele>
        <time>2012-04-02T19:09:16Z</time>
      </trkpt>
      <trkpt lat="59.9774577583" lon="23.4607901595">
        <ele>32.2</ele>
        <time>2012-04-02T19:09:20Z</time>
      </trkpt>
      <trkpt lat="59.9776279947" lon="23.4607195">
        <ele>32.2</ele>
        <time>2012-04-02T19:09:26Z</time>
      </trkpt>
      <trkpt lat="59.9778114744" lon="23.4606306519">
        <ele>32.2</ele>
        <time>2012-04-02T19:09:32Z</time>
      </trkpt>
      <trkpt lat="59.9778712374" lon="23.4606656882">
        <ele>32.2</ele>
        <time>2012-04-02T19:09:34Z</time>
      </trkpt>
      <trkpt lat="59.9780681282" lon="23.461169189">
        <ele>32.2</ele>
        <time>2012-04-02T19:09:45Z</time>
      </trkpt>
      <trkpt lat="59.9781788531" lon="23.4613286965">
        <ele>32.2</ele>
        <time>2012-04-02T19:09:50Z</time>
      </trkpt>
      <trkpt lat="59.9783264584" lon="23.461543357">
        <ele>32.2</ele>
        <time>2012-04-02T19:09:56Z</time>
      </trkpt>
      <trkpt lat="59.9784415419" lon="23.4616584405">
        <ele>32.2</ele>
        <time>2012-04-02T19:10:00Z</time>
      </trkpt>
      <trkpt lat="59.9785802623" lon="23.4617902878">
        <ele>32.2</ele>
        <time>2012-04-02T19:10:05Z</time>
      </trkpt>
      <trkpt lat="59.9787471459" lon="23.4619383121">
        <ele>33</ele>
        <time>2012-04-02T19:10:11Z</time>
      </trkpt>
      <trkpt lat="59.9788806696" lon="23.4621045252">
        <ele>33.6</ele>
        <time>2012-04-02T19:10:16Z</time>
      </trkpt>
      <trkpt lat="59.9790122654" lon="23.462280126">
        <ele>33.8</ele>
        <time>2012-04-02T19:10:21Z</time>
      </trkpt>
      <trkpt lat="59.9791690908" lon="23.4624832194">
        <ele>34.4</ele>
        <time>2012-04-02T19:10:27Z</time>
      </trkpt>
      <trkpt lat="59.9792891196" lon="23.4626304056">
        <ele>35.2</ele>
        <time>2012-04-02T19:10:32Z</time>
      </trkpt>
      <trkpt lat="59.9794287621" lon="23.4627837944">
        <ele>35.6</ele>
        <time>2012-04-02T19:10:37Z</time>
      </trkpt>
      <trkpt lat="59.9795745233" lon="23.4628998837">
        <ele>35.8</ele>
        <time>2012-04-02T19:10:42Z</time>
      </trkpt>
      <trkpt lat="59.9796803867" lon="23.4630051604">
        <ele>36</ele>
        <time>2012-04-02T19:10:46Z</time>
      </trkpt>
      <trkpt lat="59.9798045226" lon="23.4630972774">
        <ele>36.8</ele>
        <time>2012-04-02T19:10:50Z</time>
      </trkpt>
      <trkpt lat="59.9799484399" lon="23.4632047334">
        <ele>37.4</ele>
        <time>2012-04-02T19:10:55Z</time>
      </trkpt>
      <trkpt lat="59.9800912674" lon="23.4632431225">
        <ele>37.8</ele>
        <time>2012-04-02T19:11:00Z</time>
      </trkpt>
      <trkpt lat="59.9801477614" lon="23.4632818469">
        <ele>37.8</ele>
        <time>2012-04-02T19:11:02Z</time>
      </trkpt>
      <trkpt lat="59.9802788543" lon="23.4636167038">
        <ele>38</ele>
        <time>2012-04-02T19:11:09Z</time>
      </trkpt>
      <trkpt lat="59.9803746595" lon="23.4638872715">
        <ele>38.2</ele>
        <time>2012-04-02T19:11:14Z</time>
      </trkpt>
      <trkpt lat="59.9804792656" lon="23.4641837393">
        <ele>38.2</ele>
        <time>2012-04-02T19:11:20Z</time>
      </trkpt>
      <trkpt lat="59.9807184012" lon="23.4645869087">
        <ele>39.4</ele>
        <time>2012-04-02T19:11:31Z</time>
      </trkpt>
      <trkpt lat="59.9807580476" lon="23.4646237891">
        <ele>39.6</ele>
        <time>2012-04-02T19:11:33Z</time>
      </trkpt>
      <trkpt lat="59.9808690239" lon="23.4645981405">
        <ele>39.8</ele>
        <time>2012-04-02T19:11:37Z</time>
      </trkpt>
      <trkpt lat="59.980889811" lon="23.4646088693">
        <ele>39.8</ele>
        <time>2012-04-02T19:11:38Z</time>
      </trkpt>
      <trkpt lat="59.9810099237" lon="23.4646221127">
        <ele>40</ele>
        <time>2012-04-02T19:11:42Z</time>
      </trkpt>
      <trkpt lat="59.9812183815" lon="23.4646225318">
        <ele>40.2</ele>
        <time>2012-04-02T19:11:49Z</time>
      </trkpt>
      <trkpt lat="59.9814094888" lon="23.4646124735">
        <ele>40.2</ele>
        <time>2012-04-02T19:11:55Z</time>
      </trkpt>
      <trkpt lat="59.9815551663" lon="23.4646014932">
        <ele>40.2</ele>
        <time>2012-04-02T19:12:00Z</time>
      </trkpt>
      <trkpt lat="59.9817390651" lon="23.4646027505">
        <ele>40.2</ele>
        <time>2012-04-02T19:12:06Z</time>
      </trkpt>
      <trkpt lat="59.9818885144" lon="23.4645947877">
        <ele>40.4</ele>
        <time>2012-04-02T19:12:11Z</time>
      </trkpt>
      <trkpt lat="59.9820279054" lon="23.4645427361">
        <ele>40.4</ele>
        <time>2012-04-02T19:12:16Z</time>
      </trkpt>
      <trkpt lat="59.9820365388" lon="23.4642595955">
        <ele>40.4</ele>
        <time>2012-04-02T19:12:21Z</time>
      </trkpt>
      <trkpt lat="59.9819947131" lon="23.4640194541">
        <ele>40.4</ele>
        <time>2012-04-02T19:12:25Z</time>
      </trkpt>
      <trkpt lat="59.9819307592" lon="23.4636065617">
        <ele>40.4</ele>
        <time>2012-04-02T19:12:32Z</time>
      </trkpt>
      <trkpt lat="59.981871583" lon="23.4632274483">
        <ele>39.8</ele>
        <time>2012-04-02T19:12:38Z</time>
      </trkpt>
      <trkpt lat="59.9818180226" lon="23.4628712176">
        <ele>39</ele>
        <time>2012-04-02T19:12:44Z</time>
      </trkpt>
      <trkpt lat="59.9817708325" lon="23.4625967942">
        <ele>38.8</ele>
        <time>2012-04-02T19:12:49Z</time>
      </trkpt>
      <trkpt lat="59.9817338684" lon="23.4623017513">
        <ele>38.6</ele>
        <time>2012-04-02T19:12:54Z</time>
      </trkpt>
      <trkpt lat="59.9816850857" lon="23.4619999191">
        <ele>38.4</ele>
        <time>2012-04-02T19:12:59Z</time>
      </trkpt>
      <trkpt lat="59.9816170247" lon="23.461648466">
        <ele>38.4</ele>
        <time>2012-04-02T19:13:05Z</time>
      </trkpt>
      <trkpt lat="59.9815723492" lon="23.461343784">
        <ele>38.4</ele>
        <time>2012-04-02T19:13:10Z</time>
      </trkpt>
      <trkpt lat="59.9815338762" lon="23.4610418679">
        <ele>38.4</ele>
        <time>2012-04-02T19:13:15Z</time>
      </trkpt>
      <trkpt lat="59.9814784719" lon="23.4606648501">
        <ele>38.4</ele>
        <time>2012-04-02T19:13:21Z</time>
      </trkpt>
      <trkpt lat="59.981433042" lon="23.4602981419">
        <ele>38.2</ele>
        <time>2012-04-02T19:13:27Z</time>
      </trkpt>
      <trkpt lat="59.9813845108" lon="23.4599675598">
        <ele>38.2</ele>
        <time>2012-04-02T19:13:33Z</time>
      </trkpt>
      <trkpt lat="59.981331621" lon="23.4595912963">
        <ele>38</ele>
        <time>2012-04-02T19:13:39Z</time>
      </trkpt>
      <trkpt lat="59.9812904659" lon="23.4592815013">
        <ele>37.2</ele>
        <time>2012-04-02T19:13:44Z</time>
      </trkpt>
      <trkpt lat="59.9812541722" lon="23.458986626">
        <ele>36.8</ele>
        <time>2012-04-02T19:13:49Z</time>
      </trkpt>
      <trkpt lat="59.9812203932" lon="23.4586946845">
        <ele>36.6</ele>
        <time>2012-04-02T19:13:54Z</time>
      </trkpt>
      <trkpt lat="59.9811972591" lon="23.4584620867">
        <ele>36.4</ele>
        <time>2012-04-02T19:13:58Z</time>
      </trkpt>
      <trkpt lat="59.9811892125" lon="23.4584014018">
        <ele>36.4</ele>
        <time>2012-04-02T19:13:59Z</time>
      </trkpt>
      <trkpt lat="59.9811438664" lon="23.4580992343">
        <ele>35.8</ele>
        <time>2012-04-02T19:14:05Z</time>
      </trkpt>
      <trkpt lat="59.9810870371" lon="23.4577440932">
        <ele>35</ele>
        <time>2012-04-02T19:14:10Z</time>
      </trkpt>
      <trkpt lat="59.9810447086" lon="23.4574402493">
        <ele>34.8</ele>
        <time>2012-04-02T19:14:15Z</time>
      </trkpt>
      <trkpt lat="59.9810004521" lon="23.4571026264">
        <ele>34.6</ele>
        <time>2012-04-02T19:14:21Z</time>
      </trkpt>
      <trkpt lat="59.9809546031" lon="23.4568127803">
        <ele>33.6</ele>
        <time>2012-04-02T19:14:26Z</time>
      </trkpt>
      <trkpt lat="59.980895846" lon="23.4564427194">
        <ele>32.8</ele>
        <time>2012-04-02T19:14:33Z</time>
      </trkpt>
      <trkpt lat="59.9808318921" lon="23.4560662044">
        <ele>31.4</ele>
        <time>2012-04-02T19:14:39Z</time>
      </trkpt>
      <trkpt lat="59.9807885577" lon="23.455838552">
        <ele>30.8</ele>
        <time>2012-04-02T19:14:43Z</time>
      </trkpt>
      <trkpt lat="59.9807332371" lon="23.4555537351">
        <ele>30.4</ele>
        <time>2012-04-02T19:14:48Z</time>
      </trkpt>
      <trkpt lat="59.9806787548" lon="23.4552068082">
        <ele>29.6</ele>
        <time>2012-04-02T19:14:54Z</time>
      </trkpt>
      <trkpt lat="59.980684203" lon="23.4551421">
        <ele>29.4</ele>
        <time>2012-04-02T19:14:55Z</time>
      </trkpt>
      <trkpt lat="59.9806879749" lon="23.4548364121">
        <ele>28.8</ele>
        <time>2012-04-02T19:15:00Z</time>
      </trkpt>
      <trkpt lat="59.9806516813" lon="23.4544939276">
        <ele>28.4</ele>
        <time>2012-04-02T19:15:06Z</time>
      </trkpt>
      <trkpt lat="59.9806068381" lon="23.4542208453">
        <ele>28.2</ele>
        <time>2012-04-02T19:15:11Z</time>
      </trkpt>
      <trkpt lat="59.9805412078" lon="23.4538884192">
        <ele>27.2</ele>
        <time>2012-04-02T19:15:17Z</time>
      </trkpt>
      <trkpt lat="59.9804990469" lon="23.4536658797">
        <ele>26.6</ele>
        <time>2012-04-02T19:15:21Z</time>
      </trkpt>
      <trkpt lat="59.98042537" lon="23.4533450206">
        <ele>26.2</ele>
        <time>2012-04-02T19:15:27Z</time>
      </trkpt>
      <trkpt lat="59.9803441494" lon="23.4530190485">
        <ele>26</ele>
        <time>2012-04-02T19:15:33Z</time>
      </trkpt>
      <trkpt lat="59.9802719812" lon="23.4527172163">
        <ele>25.8</ele>
        <time>2012-04-02T19:15:38Z</time>
      </trkpt>
      <trkpt lat="59.9801826301" lon="23.4523864665">
        <ele>25.8</ele>
        <time>2012-04-02T19:15:45Z</time>
      </trkpt>
      <trkpt lat="59.9801231186" lon="23.4521044994">
        <ele>25.8</ele>
        <time>2012-04-02T19:15:49Z</time>
      </trkpt>
      <trkpt lat="59.9800448317" lon="23.4517755937">
        <ele>25.8</ele>
        <time>2012-04-02T19:15:55Z</time>
      </trkpt>
      <trkpt lat="59.9799696461" lon="23.4514397309">
        <ele>25.8</ele>
        <time>2012-04-02T19:16:01Z</time>
      </trkpt>
      <trkpt lat="59.9798910238" lon="23.4510974979">
        <ele>25.8</ele>
        <time>2012-04-02T19:16:07Z</time>
      </trkpt>
      <trkpt lat="59.9798142456" lon="23.4507502358">
        <ele>25.8</ele>
        <time>2012-04-02T19:16:13Z</time>
      </trkpt>
      <trkpt lat="59.9797529739" lon="23.4504703642">
        <ele>25.8</ele>
        <time>2012-04-02T19:16:18Z</time>
      </trkpt>
      <trkpt lat="59.9796901935" lon="23.4501968628">
        <ele>25.8</ele>
        <time>2012-04-02T19:16:23Z</time>
      </trkpt>
      <trkpt lat="59.9796305982" lon="23.4498578988">
        <ele>25.8</ele>
        <time>2012-04-02T19:16:29Z</time>
      </trkpt>
      <trkpt lat="59.9795527304" lon="23.4492857503">
        <ele>25.8</ele>
        <time>2012-04-02T19:16:39Z</time>
      </trkpt>
      <trkpt lat="59.9794987509" lon="23.4489373147">
        <ele>25.8</ele>
        <time>2012-04-02T19:16:45Z</time>
      </trkpt>
      <trkpt lat="59.9794446038" lon="23.4485901364">
        <ele>25.8</ele>
        <time>2012-04-02T19:16:51Z</time>
      </trkpt>
      <trkpt lat="59.9794001798" lon="23.4482914055">
        <ele>25.8</ele>
        <time>2012-04-02T19:16:56Z</time>
      </trkpt>
      <trkpt lat="59.9793568453" lon="23.4479333307">
        <ele>25.8</ele>
        <time>2012-04-02T19:17:02Z</time>
      </trkpt>
      <trkpt lat="59.9793166122" lon="23.4476425626">
        <ele>25</ele>
        <time>2012-04-02T19:17:07Z</time>
      </trkpt>
      <trkpt lat="59.9792716014" lon="23.4473191889">
        <ele>24.4</ele>
        <time>2012-04-02T19:17:13Z</time>
      </trkpt>
      <trkpt lat="59.9792238246" lon="23.4470308515">
        <ele>24.2</ele>
        <time>2012-04-02T19:17:18Z</time>
      </trkpt>
      <trkpt lat="59.9791680011" lon="23.4466468767">
        <ele>24</ele>
        <time>2012-04-02T19:17:25Z</time>
      </trkpt>
      <trkpt lat="59.9791269298" lon="23.4463586231">
        <ele>23.8</ele>
        <time>2012-04-02T19:17:30Z</time>
      </trkpt>
      <trkpt lat="59.9790814161" lon="23.4460080083">
        <ele>23.8</ele>
        <time>2012-04-02T19:17:36Z</time>
      </trkpt>
      <trkpt lat="59.9790377464" lon="23.4456537054">
        <ele>23.8</ele>
        <time>2012-04-02T19:17:42Z</time>
      </trkpt>
      <trkpt lat="59.9789885447" lon="23.4452939542">
        <ele>23.8</ele>
        <time>2012-04-02T19:17:48Z</time>
      </trkpt>
      <trkpt lat="59.9789585375" lon="23.4450351211">
        <ele>23.8</ele>
        <time>2012-04-02T19:17:52Z</time>
      </trkpt>
      <trkpt lat="59.978949485" lon="23.4447867654">
        <ele>23.8</ele>
        <time>2012-04-02T19:17:56Z</time>
      </trkpt>
      <trkpt lat="59.978939762" lon="23.4444805746">
        <ele>23.8</ele>
        <time>2012-04-02T19:18:01Z</time>
      </trkpt>
      <trkpt lat="59.9789216571" lon="23.4441263555">
        <ele>23.8</ele>
        <time>2012-04-02T19:18:07Z</time>
      </trkpt>
      <trkpt lat="59.9789022111" lon="23.4437785067">
        <ele>23.8</ele>
        <time>2012-04-02T19:18:13Z</time>
      </trkpt>
      <trkpt lat="59.9789066535" lon="23.4434163248">
        <ele>23.8</ele>
        <time>2012-04-02T19:18:19Z</time>
      </trkpt>
      <trkpt lat="59.9789081622" lon="23.4430605131">
        <ele>23.8</ele>
        <time>2012-04-02T19:18:25Z</time>
      </trkpt>
      <trkpt lat="59.9788917337" lon="23.4424259195">
        <ele>22.4</ele>
        <time>2012-04-02T19:18:36Z</time>
      </trkpt>
      <trkpt lat="59.9789051448" lon="23.4421457964">
        <ele>22.2</ele>
        <time>2012-04-02T19:18:41Z</time>
      </trkpt>
      <trkpt lat="59.9789019596" lon="23.4417920802">
        <ele>21.8</ele>
        <time>2012-04-02T19:18:47Z</time>
      </trkpt>
      <trkpt lat="59.9789029655" lon="23.4414558822">
        <ele>21.8</ele>
        <time>2012-04-02T19:18:53Z</time>
      </trkpt>
      <trkpt lat="59.9789010376" lon="23.4413330874">
        <ele>21.8</ele>
        <time>2012-04-02T19:18:55Z</time>
      </trkpt>
      <trkpt lat="59.9789007024" lon="23.4410918563">
        <ele>21.8</ele>
        <time>2012-04-02T19:18:59Z</time>
      </trkpt>
      <trkpt lat="59.9788960085" lon="23.4407321051">
        <ele>21.6</ele>
        <time>2012-04-02T19:19:05Z</time>
      </trkpt>
      <trkpt lat="59.9788984392" lon="23.4404326198">
        <ele>21.6</ele>
        <time>2012-04-02T19:19:10Z</time>
      </trkpt>
      <trkpt lat="59.9789170471" lon="23.4401591184">
        <ele>21.6</ele>
        <time>2012-04-02T19:19:15Z</time>
      </trkpt>
      <trkpt lat="59.9789454617" lon="23.439889808">
        <ele>21.6</ele>
        <time>2012-04-02T19:19:20Z</time>
      </trkpt>
      <trkpt lat="59.9789884608" lon="23.4396394406">
        <ele>21.6</ele>
        <time>2012-04-02T19:19:25Z</time>
      </trkpt>
      <trkpt lat="59.979044871" lon="23.4393671127">
        <ele>21.6</ele>
        <time>2012-04-02T19:19:30Z</time>
      </trkpt>
      <trkpt lat="59.9791031252" lon="23.4390638556">
        <ele>22.6</ele>
        <time>2012-04-02T19:19:36Z</time>
      </trkpt>
      <trkpt lat="59.9791599545" lon="23.438763113">
        <ele>23</ele>
        <time>2012-04-02T19:19:42Z</time>
      </trkpt>
      <trkpt lat="59.9792608726" lon="23.4384455228">
        <ele>23.4</ele>
        <time>2012-04-02T19:19:49Z</time>
      </trkpt>
      <trkpt lat="59.9792861859" lon="23.4384316927">
        <ele>23.4</ele>
        <time>2012-04-02T19:19:50Z</time>
      </trkpt>
      <trkpt lat="59.9794008503" lon="23.4384684054">
        <ele>23.4</ele>
        <time>2012-04-02T19:19:54Z</time>
      </trkpt>
      <trkpt lat="59.9795296801" lon="23.4384042839">
        <ele>23.6</ele>
        <time>2012-04-02T19:19:59Z</time>
      </trkpt>
      <trkpt lat="59.9796689035" lon="23.4383132564">
        <ele>23.6</ele>
        <time>2012-04-02T19:20:04Z</time>
      </trkpt>
      <trkpt lat="59.9798145809" lon="23.438300013">
        <ele>23.6</ele>
        <time>2012-04-02T19:20:09Z</time>
      </trkpt>
      <trkpt lat="59.9799095478" lon="23.4381069779">
        <ele>23.6</ele>
        <time>2012-04-02T19:20:14Z</time>
      </trkpt>
      <trkpt lat="59.9799697299" lon="23.4378437024">
        <ele>23.6</ele>
        <time>2012-04-02T19:20:19Z</time>
      </trkpt>
      <trkpt lat="59.9800072808" lon="23.4375550298">
        <ele>23.6</ele>
        <time>2012-04-02T19:20:24Z</time>
      </trkpt>
      <trkpt lat="59.9800524592" lon="23.4372378587">
        <ele>23.6</ele>
        <time>2012-04-02T19:20:30Z</time>
      </trkpt>
      <trkpt lat="59.9801040079" lon="23.4368841425">
        <ele>23</ele>
        <time>2012-04-02T19:20:36Z</time>
      </trkpt>
      <trkpt lat="59.9801718175" lon="23.4365491179">
        <ele>22.4</ele>
        <time>2012-04-02T19:20:42Z</time>
      </trkpt>
      <trkpt lat="59.9802345141" lon="23.436230941">
        <ele>21.8</ele>
        <time>2012-04-02T19:20:48Z</time>
      </trkpt>
      <trkpt lat="59.9802899185" lon="23.4359546736">
        <ele>20.8</ele>
        <time>2012-04-02T19:20:53Z</time>
      </trkpt>
      <trkpt lat="59.9803385335" lon="23.4356707786">
        <ele>20.4</ele>
        <time>2012-04-02T19:20:58Z</time>
      </trkpt>
      <trkpt lat="59.9803894116" lon="23.4354143763">
        <ele>19.6</ele>
        <time>2012-04-02T19:21:03Z</time>
      </trkpt>
      <trkpt lat="59.980455461" lon="23.4351638413">
        <ele>18.8</ele>
        <time>2012-04-02T19:21:08Z</time>
      </trkpt>
      <trkpt lat="59.9805306466" lon="23.4348291521">
        <ele>18.2</ele>
        <time>2012-04-02T19:21:14Z</time>
      </trkpt>
      <trkpt lat="59.9806149685" lon="23.4344998272">
        <ele>17.8</ele>
        <time>2012-04-02T19:21:20Z</time>
      </trkpt>
      <trkpt lat="59.9806947642" lon="23.4341891102">
        <ele>17.6</ele>
        <time>2012-04-02T19:21:26Z</time>
      </trkpt>
      <trkpt lat="59.9808408607" lon="23.4336190571">
        <ele>17.6</ele>
        <time>2012-04-02T19:21:37Z</time>
      </trkpt>
      <trkpt lat="59.9808918227" lon="23.4334078333">
        <ele>17.6</ele>
        <time>2012-04-02T19:21:41Z</time>
      </trkpt>
      <trkpt lat="59.9809600514" lon="23.433144474">
        <ele>17.4</ele>
        <time>2012-04-02T19:21:46Z</time>
      </trkpt>
      <trkpt lat="59.9810416911" lon="23.4328582321">
        <ele>17.4</ele>
        <time>2012-04-02T19:21:52Z</time>
      </trkpt>
      <trkpt lat="59.9811245042" lon="23.4325805397">
        <ele>17.4</ele>
        <time>2012-04-02T19:21:58Z</time>
      </trkpt>
      <trkpt lat="59.98119684" lon="23.4323173481">
        <ele>17.4</ele>
        <time>2012-04-02T19:22:03Z</time>
      </trkpt>
      <trkpt lat="59.9812421861" lon="23.4320991672">
        <ele>17.4</ele>
        <time>2012-04-02T19:22:07Z</time>
      </trkpt>
      <trkpt lat="59.9813022005" lon="23.4318886139">
        <ele>17.4</ele>
        <time>2012-04-02T19:22:11Z</time>
      </trkpt>
      <trkpt lat="59.9813611253" lon="23.4316209798">
        <ele>17.4</ele>
        <time>2012-04-02T19:22:17Z</time>
      </trkpt>
      <trkpt lat="59.9813929765" lon="23.4315426091">
        <ele>17.4</ele>
        <time>2012-04-02T19:22:19Z</time>
      </trkpt>
      <trkpt lat="59.981539995" lon="23.4309787586">
        <ele>17.4</ele>
        <time>2012-04-02T19:22:30Z</time>
      </trkpt>
      <trkpt lat="59.9816574254" lon="23.430685476">
        <ele>17.4</ele>
        <time>2012-04-02T19:22:36Z</time>
      </trkpt>
      <trkpt lat="59.9817762808" lon="23.430470145">
        <ele>17.4</ele>
        <time>2012-04-02T19:22:41Z</time>
      </trkpt>
      <trkpt lat="59.9819577489" lon="23.4304255532">
        <ele>17.4</ele>
        <time>2012-04-02T19:22:47Z</time>
      </trkpt>
      <trkpt lat="59.9821409773" lon="23.4304412274">
        <ele>17.4</ele>
        <time>2012-04-02T19:22:53Z</time>
      </trkpt>
      <trkpt lat="59.9822704776" lon="23.430436785">
        <ele>17.4</ele>
        <time>2012-04-02T19:22:57Z</time>
      </trkpt>
      <trkpt lat="59.9824164065" lon="23.4304278164">
        <ele>17.4</ele>
        <time>2012-04-02T19:23:02Z</time>
      </trkpt>
      <trkpt lat="59.9825553784" lon="23.4303422372">
        <ele>17.4</ele>
        <time>2012-04-02T19:23:07Z</time>
      </trkpt>
      <trkpt lat="59.9826399518" lon="23.4302022594">
        <ele>17.4</ele>
        <time>2012-04-02T19:23:11Z</time>
      </trkpt>
      <trkpt lat="59.9827371818" lon="23.4300257366">
        <ele>17.4</ele>
        <time>2012-04-02T19:23:16Z</time>
      </trkpt>
      <trkpt lat="59.9828018062" lon="23.4297035364">
        <ele>17.4</ele>
        <time>2012-04-02T19:23:22Z</time>
      </trkpt>
      <trkpt lat="59.9828622397" lon="23.4293221599">
        <ele>17.4</ele>
        <time>2012-04-02T19:23:29Z</time>
      </trkpt>
      <trkpt lat="59.9829058256" lon="23.4289923322">
        <ele>16.6</ele>
        <time>2012-04-02T19:23:35Z</time>
      </trkpt>
      <trkpt lat="59.9829476513" lon="23.4287051683">
        <ele>16</ele>
        <time>2012-04-02T19:23:40Z</time>
      </trkpt>
      <trkpt lat="59.9830142874" lon="23.4283128954">
        <ele>15.8</ele>
        <time>2012-04-02T19:23:47Z</time>
      </trkpt>
      <trkpt lat="59.9830658361" lon="23.4279701595">
        <ele>15.6</ele>
        <time>2012-04-02T19:23:53Z</time>
      </trkpt>
      <trkpt lat="59.9831211566" lon="23.4276270045">
        <ele>15.6</ele>
        <time>2012-04-02T19:23:59Z</time>
      </trkpt>
      <trkpt lat="59.9831597972" lon="23.4274068958">
        <ele>15.6</ele>
        <time>2012-04-02T19:24:03Z</time>
      </trkpt>
      <trkpt lat="59.9831791594" lon="23.4272861964">
        <ele>15.6</ele>
        <time>2012-04-02T19:24:05Z</time>
      </trkpt>
      <trkpt lat="59.9832391738" lon="23.4269432929">
        <ele>15.4</ele>
        <time>2012-04-02T19:24:11Z</time>
      </trkpt>
      <trkpt lat="59.9832908063" lon="23.426613968">
        <ele>15.4</ele>
        <time>2012-04-02T19:24:17Z</time>
      </trkpt>
      <trkpt lat="59.9833621363" lon="23.426155059">
        <ele>15.4</ele>
        <time>2012-04-02T19:24:25Z</time>
      </trkpt>
      <trkpt lat="59.9833057261" lon="23.4258552385">
        <ele>15.4</ele>
        <time>2012-04-02T19:24:31Z</time>
      </trkpt>
      <trkpt lat="59.9833058937" lon="23.4255548312">
        <ele>15.4</ele>
        <time>2012-04-02T19:24:36Z</time>
      </trkpt>
      <trkpt lat="59.9834001063" lon="23.4254084832">
        <ele>15.4</ele>
        <time>2012-04-02T19:24:40Z</time>
      </trkpt>
      <trkpt lat="59.983534049" lon="23.42538032">
        <ele>15.4</ele>
        <time>2012-04-02T19:24:44Z</time>
      </trkpt>
      <trkpt lat="59.9835761262" lon="23.4254095728">
        <ele>15.4</ele>
        <time>2012-04-02T19:24:47Z</time>
      </trkpt>
      <trkpt lat="59.9836870187" lon="23.4254227324">
        <ele>15.2</ele>
        <time>2012-04-02T19:24:51Z</time>
      </trkpt>
      <trkpt lat="59.9838548243" lon="23.4253882828">
        <ele>14.6</ele>
        <time>2012-04-02T19:24:55Z</time>
      </trkpt>
      <trkpt lat="59.9840338617" lon="23.4253809067">
        <ele>14.2</ele>
        <time>2012-04-02T19:25:00Z</time>
      </trkpt>
      <trkpt lat="59.9841903518" lon="23.4253061402">
        <ele>13.8</ele>
        <time>2012-04-02T19:25:05Z</time>
      </trkpt>
      <trkpt lat="59.9843183434" lon="23.4251555174">
        <ele>13.6</ele>
        <time>2012-04-02T19:25:10Z</time>
      </trkpt>
      <trkpt lat="59.9844992248" lon="23.4250887975">
        <ele>13.6</ele>
        <time>2012-04-02T19:25:16Z</time>
      </trkpt>
      <trkpt lat="59.984668623" lon="23.4250235025">
        <ele>13.4</ele>
        <time>2012-04-02T19:25:22Z</time>
      </trkpt>
      <trkpt lat="59.9848643404" lon="23.4250196468">
        <ele>13.4</ele>
        <time>2012-04-02T19:25:28Z</time>
      </trkpt>
      <trkpt lat="59.9850650031" lon="23.4250100077">
        <ele>14.4</ele>
        <time>2012-04-02T19:25:35Z</time>
      </trkpt>
      <trkpt lat="59.9852467227" lon="23.4250040565">
        <ele>15</ele>
        <time>2012-04-02T19:25:41Z</time>
      </trkpt>
      <trkpt lat="59.9854334714" lon="23.4249962613">
        <ele>15.2</ele>
        <time>2012-04-02T19:25:48Z</time>
      </trkpt>
      <trkpt lat="59.9856299431" lon="23.4249914837">
        <ele>16</ele>
        <time>2012-04-02T19:25:56Z</time>
      </trkpt>
      <trkpt lat="59.9857984193" lon="23.4249893044">
        <ele>16.6</ele>
        <time>2012-04-02T19:26:01Z</time>
      </trkpt>
      <trkpt lat="59.9859795522" lon="23.4249900587">
        <ele>17</ele>
        <time>2012-04-02T19:26:07Z</time>
      </trkpt>
      <trkpt lat="59.9861534766" lon="23.4249870413">
        <ele>17.2</ele>
        <time>2012-04-02T19:26:13Z</time>
      </trkpt>
      <trkpt lat="59.9863593361" lon="23.4249631528">
        <ele>17.4</ele>
        <time>2012-04-02T19:26:20Z</time>
      </trkpt>
      <trkpt lat="59.9865649441" lon="23.4249942497">
        <ele>17.4</ele>
        <time>2012-04-02T19:26:27Z</time>
      </trkpt>
      <trkpt lat="59.9867760841" lon="23.425053845">
        <ele>17.4</ele>
        <time>2012-04-02T19:26:34Z</time>
      </trkpt>
      <trkpt lat="59.9869143855" lon="23.4251169607">
        <ele>17.4</ele>
        <time>2012-04-02T19:26:39Z</time>
      </trkpt>
      <trkpt lat="59.9870822749" lon="23.4252064794">
        <ele>17.4</ele>
        <time>2012-04-02T19:26:45Z</time>
      </trkpt>
      <trkpt lat="59.9872037287" lon="23.4252611294">
        <ele>17.4</ele>
        <time>2012-04-02T19:26:49Z</time>
      </trkpt>
      <trkpt lat="59.9873786589" lon="23.4253463733">
        <ele>17.4</ele>
        <time>2012-04-02T19:26:55Z</time>
      </trkpt>
      <trkpt lat="59.9875062314" lon="23.4253919708">
        <ele>17.4</ele>
        <time>2012-04-02T19:26:59Z</time>
      </trkpt>
      <trkpt lat="59.9877017812" lon="23.425461373">
        <ele>17.4</ele>
        <time>2012-04-02T19:27:06Z</time>
      </trkpt>
      <trkpt lat="59.9878465366" lon="23.4254921345">
        <ele>17.4</ele>
        <time>2012-04-02T19:27:11Z</time>
      </trkpt>
      <trkpt lat="59.9879774619" lon="23.4255034501">
        <ele>17.4</ele>
        <time>2012-04-02T19:27:16Z</time>
      </trkpt>
      <trkpt lat="59.9881562478" lon="23.4255466169">
        <ele>17.4</ele>
        <time>2012-04-02T19:27:22Z</time>
      </trkpt>
      <trkpt lat="59.9883260651" lon="23.4255821562">
        <ele>17.6</ele>
        <time>2012-04-02T19:27:28Z</time>
      </trkpt>
      <trkpt lat="59.9884428249" lon="23.4256259935">
        <ele>18.4</ele>
        <time>2012-04-02T19:27:33Z</time>
      </trkpt>
      <trkpt lat="59.9885988959" lon="23.4256672324">
        <ele>18.8</ele>
        <time>2012-04-02T19:27:38Z</time>
      </trkpt>
      <trkpt lat="59.9887149852" lon="23.425682739">
        <ele>19.2</ele>
        <time>2012-04-02T19:27:42Z</time>
      </trkpt>
      <trkpt lat="59.9889101997" lon="23.4256955633">
        <ele>19.4</ele>
        <time>2012-04-02T19:27:48Z</time>
      </trkpt>
      <trkpt lat="59.9891094375" lon="23.4257121594">
        <ele>19.4</ele>
        <time>2012-04-02T19:27:54Z</time>
      </trkpt>
      <trkpt lat="59.9893023888" lon="23.4257287556">
        <ele>19.4</ele>
        <time>2012-04-02T19:28:00Z</time>
      </trkpt>
      <trkpt lat="59.9894494073" lon="23.4257255705">
        <ele>19.4</ele>
        <time>2012-04-02T19:28:05Z</time>
      </trkpt>
      <trkpt lat="59.989632468" lon="23.4257399035">
        <ele>19.6</ele>
        <time>2012-04-02T19:28:11Z</time>
      </trkpt>
      <trkpt lat="59.9898118407" lon="23.4257666418">
        <ele>19.6</ele>
        <time>2012-04-02T19:28:17Z</time>
      </trkpt>
      <trkpt lat="59.9901111583" lon="23.4257925418">
        <ele>19.6</ele>
        <time>2012-04-02T19:28:27Z</time>
      </trkpt>
      <trkpt lat="59.9902254036" lon="23.4257904464">
        <ele>19.8</ele>
        <time>2012-04-02T19:28:31Z</time>
      </trkpt>
      <trkpt lat="59.9904022617" lon="23.4258070425">
        <ele>20.6</ele>
        <time>2012-04-02T19:28:37Z</time>
      </trkpt>
      <trkpt lat="59.9905768567" lon="23.4258378879">
        <ele>21</ele>
        <time>2012-04-02T19:28:43Z</time>
      </trkpt>
      <trkpt lat="59.990721193" lon="23.4258611058">
        <ele>21.2</ele>
        <time>2012-04-02T19:28:48Z</time>
      </trkpt>
      <trkpt lat="59.9909155693" lon="23.4259101399">
        <ele>21.4</ele>
        <time>2012-04-02T19:28:55Z</time>
      </trkpt>
      <trkpt lat="59.99106066" lon="23.4259344474">
        <ele>21.4</ele>
        <time>2012-04-02T19:29:00Z</time>
      </trkpt>
      <trkpt lat="59.9911759949" lon="23.4259792068">
        <ele>21.6</ele>
        <time>2012-04-02T19:29:05Z</time>
      </trkpt>
      <trkpt lat="59.9912579699" lon="23.4260129858">
        <ele>21.6</ele>
        <time>2012-04-02T19:29:07Z</time>
      </trkpt>
      <trkpt lat="59.9914404438" lon="23.4261238784">
        <ele>21.6</ele>
        <time>2012-04-02T19:29:13Z</time>
      </trkpt>
      <trkpt lat="59.9916203194" lon="23.426280117">
        <ele>21.6</ele>
        <time>2012-04-02T19:29:20Z</time>
      </trkpt>
      <trkpt lat="59.9917825092" lon="23.4264540414">
        <ele>21.6</ele>
        <time>2012-04-02T19:29:26Z</time>
      </trkpt>
      <trkpt lat="59.991915027" lon="23.4266386946">
        <ele>21.6</ele>
        <time>2012-04-02T19:29:31Z</time>
      </trkpt>
      <trkpt lat="59.9920423481" lon="23.4268493318">
        <ele>21.6</ele>
        <time>2012-04-02T19:29:37Z</time>
      </trkpt>
      <trkpt lat="59.9921710941" lon="23.4270044808">
        <ele>21.6</ele>
        <time>2012-04-02T19:29:42Z</time>
      </trkpt>
      <trkpt lat="59.9922968226" lon="23.4271415248">
        <ele>21.6</ele>
        <time>2012-04-02T19:29:46Z</time>
      </trkpt>
      <trkpt lat="59.9924823978" lon="23.4271930735">
        <ele>21.6</ele>
        <time>2012-04-02T19:29:52Z</time>
      </trkpt>
      <trkpt lat="59.9926769417" lon="23.4271889664">
        <ele>21.6</ele>
        <time>2012-04-02T19:29:58Z</time>
      </trkpt>
      <trkpt lat="59.9928807895" lon="23.4271861165">
        <ele>21.6</ele>
        <time>2012-04-02T19:30:05Z</time>
      </trkpt>
      <trkpt lat="59.9930331725" lon="23.4271810874">
        <ele>21.6</ele>
        <time>2012-04-02T19:30:09Z</time>
      </trkpt>
      <trkpt lat="59.9931868965" lon="23.4271906428">
        <ele>21.6</ele>
        <time>2012-04-02T19:30:15Z</time>
      </trkpt>
      <trkpt lat="59.9933708792" lon="23.4271416925">
        <ele>21.6</ele>
        <time>2012-04-02T19:30:21Z</time>
      </trkpt>
      <trkpt lat="59.9935040676" lon="23.4270085879">
        <ele>21.6</ele>
        <time>2012-04-02T19:30:25Z</time>
      </trkpt>
      <trkpt lat="59.9936440454" lon="23.4268258625">
        <ele>21.6</ele>
        <time>2012-04-02T19:30:31Z</time>
      </trkpt>
      <trkpt lat="59.9938856955" lon="23.4265913369">
        <ele>21.6</ele>
        <time>2012-04-02T19:30:39Z</time>
      </trkpt>
      <trkpt lat="59.994000779" lon="23.4263068552">
        <ele>21.6</ele>
        <time>2012-04-02T19:30:45Z</time>
      </trkpt>
      <trkpt lat="59.994099434" lon="23.4261006605">
        <ele>21</ele>
        <time>2012-04-02T19:30:51Z</time>
      </trkpt>
      <trkpt lat="59.994213344" lon="23.4261615969">
        <ele>20.6</ele>
        <time>2012-04-02T19:30:55Z</time>
      </trkpt>
      <trkpt lat="59.9942678264" lon="23.4262227848">
        <ele>20.4</ele>
        <time>2012-04-02T19:30:57Z</time>
      </trkpt>
      <trkpt lat="59.9944007633" lon="23.4265638443">
        <ele>20</ele>
        <time>2012-04-02T19:31:03Z</time>
      </trkpt>
      <trkpt lat="59.9945540682" lon="23.4268162233">
        <ele>19.8</ele>
        <time>2012-04-02T19:31:09Z</time>
      </trkpt>
      <trkpt lat="59.994723215" lon="23.4269934167">
        <ele>19.6</ele>
        <time>2012-04-02T19:31:15Z</time>
      </trkpt>
      <trkpt lat="59.9948740892" lon="23.4271452129">
        <ele>19.6</ele>
        <time>2012-04-02T19:31:21Z</time>
      </trkpt>
      <trkpt lat="59.9949673797" lon="23.4272061493">
        <ele>19.6</ele>
        <time>2012-04-02T19:31:25Z</time>
      </trkpt>
      <trkpt lat="59.9949914358" lon="23.4270783253">
        <ele>19.6</ele>
        <time>2012-04-02T19:31:28Z</time>
      </trkpt>
      <trkpt lat="59.9950042601" lon="23.4268667661">
        <ele>19.6</ele>
        <time>2012-04-02T19:31:33Z</time>
      </trkpt>
      <trkpt lat="59.9950079481" lon="23.4268417043">
        <ele>19.6</ele>
        <time>2012-04-02T19:31:34Z</time>
      </trkpt>
    </trkseg>
  </trk>
</gpx>